SondeTracker

Meteorological Radiosondes Database

Operations

Sounding was ended - last measurement: 2022-12-06 14:02:08z

MAP
About Radiosonde

Number: D22042554 ([BC]22042554)

Launch Site: Greensboro [NC] (US)

Type: DFM

AUX: NO

Frequency: 403.400 MHz

Max Speed: 187 km/h at 31779 m

Average Speed: 89.77 km/h

Max Altitude: 32886 m

Average Ascent Speed: 4.67 m/s

Average Descent Speed: 8.18 m/s

Status: UNKNOWN

Status Changes
Launch Site Type AUX Frequency Status Finder Landing Point Description Changes made by
APRS Statistics

Received Frames: 644

First Frame [UTC]: 2022-12-06 11:08:22z

Last Frame [UTC]: 2022-12-06 14:02:08z

Receivers: KD4EG-15, W4DEX-14, W4KZK-14

Flight Time: 02:53:46 h

Distance From First Measurement: 240.66 km

Nearest City: Greenville [NC] (US) [3.85 km]

Nearest Hunter: [0.00 km]

Ground Altitude: 1 m

Distance from QTH: 0.00 km

APRS Data
Receiver Number Date/Time [UTC] φ λ Course [°] Speed [km/h] Altitude [m] Description
W4DEX-14D220425542022-12-06 14:02:0835.614-77.3408101313902Clb=-3.2m/s Type=DFM17 ser=[BC]22042554 Details on http://radiosondy.info
W4DEX-14D220425542022-12-06 14:01:5335.614-77.342287313951Clb=-3.2m/s Type=DFM17 ser=[BC]22042554 Details on http://radiosondy.info
W4DEX-14D220425542022-12-06 14:01:3835.614-77.343774354003Clb=-3.0m/s Type=DFM17 ser=[BC]22042554 Details on http://radiosondy.info
W4DEX-14D220425542022-12-06 14:01:2335.614-77.345290314050Clb=-3.1m/s Type=DFM17 ser=[BC]22042554 Details on http://radiosondy.info
W4DEX-14D220425542022-12-06 14:01:0835.6138-77.346795304097Clb=-3.1m/s Type=DFM17 ser=[BC]22042554 Details on http://radiosondy.info
W4DEX-14D220425542022-12-06 14:00:5335.6139-77.34876354146Clb=-3.1m/s Type=DFM17 ser=[BC]22042554 Details on http://radiosondy.info
W4DEX-14D220425542022-12-06 14:00:3835.6139-77.349691334194Clb=-3.2m/s Type=DFM17 ser=[BC]22042554 Details on http://radiosondy.info
W4DEX-14D220425542022-12-06 14:00:2635.6137-77.351199334243Clb=-3.2m/s Type=DFM17 ser=[BC]22042554 Details on http://radiosondy.info
W4DEX-14D220425542022-12-06 14:00:1635.6136-77.352698314292Clb=-3.2m/s Type=DFM17 ser=[BC]22042554 Details on http://radiosondy.info
W4DEX-14D220425542022-12-06 13:59:5335.6134-77.354193314339Clb=-3.0m/s Type=DFM17 ser=[BC]22042554 Details on http://radiosondy.info
W4DEX-14D220425542022-12-06 13:59:3835.6133-77.355590304387Clb=-3.2m/s Type=DFM17 ser=[BC]22042554 Details on http://radiosondy.info
W4DEX-14D220425542022-12-06 13:59:2335.6132-77.356891284435Clb=-3.1m/s Type=DFM17 ser=[BC]22042554 Details on http://radiosondy.info
W4DEX-14D220425542022-12-06 13:59:0835.6132-77.358191264483Clb=-3.0m/s Type=DFM17 ser=[BC]22042554 Details on http://radiosondy.info
W4DEX-14D220425542022-12-06 13:58:5335.6131-77.359290264530Clb=-3.2m/s Type=DFM17 ser=[BC]22042554 Details on http://radiosondy.info
W4DEX-14D220425542022-12-06 13:58:3835.6129-77.360474284576Clb=-3.2m/s Type=DFM17 ser=[BC]22042554 Details on http://radiosondy.info
W4DEX-14D220425542022-12-06 13:58:2335.6126-77.361668304624Clb=-3.2m/s Type=DFM17 ser=[BC]22042554 Details on http://radiosondy.info
W4DEX-14D220425542022-12-06 13:58:0835.6123-77.362860314672Clb=-3.1m/s Type=DFM17 ser=[BC]22042554 Details on http://radiosondy.info
W4DEX-14D220425542022-12-06 13:57:5335.6119-77.364160314719Clb=-3.1m/s Type=DFM17 ser=[BC]22042554 Details on http://radiosondy.info
W4DEX-14D220425542022-12-06 13:57:3835.6116-77.365555334768Clb=-3.2m/s Type=DFM17 ser=[BC]22042554 Details on http://radiosondy.info
W4DEX-14D220425542022-12-06 13:57:2335.6112-77.366964414817Clb=-3.1m/s Type=DFM17 ser=[BC]22042554 Details on http://radiosondy.info
W4DEX-14D220425542022-12-06 13:57:0835.6108-77.368792414865Clb=-3.1m/s Type=DFM17 ser=[BC]22042554 Details on http://radiosondy.info
W4DEX-14D220425542022-12-06 13:56:5335.6104-77.370591394913Clb=-3.3m/s Type=DFM17 ser=[BC]22042554 Details on http://radiosondy.info
W4DEX-14D220425542022-12-06 13:56:3835.6101-77.372184374963Clb=-3.3m/s Type=DFM17 ser=[BC]22042554 Details on http://radiosondy.info
W4DEX-14D220425542022-12-06 13:56:2335.6097-77.373876395012Clb=-3.2m/s Type=DFM17 ser=[BC]22042554 Details on http://radiosondy.info
W4DEX-14D220425542022-12-06 13:56:0835.6095-77.375571435059Clb=-2.9m/s Type=DFM17 ser=[BC]22042554 Details on http://radiosondy.info
W4DEX-14D220425542022-12-06 13:55:5335.6093-77.377572445106Clb=-2.9m/s Type=DFM17 ser=[BC]22042554 Details on http://radiosondy.info
W4DEX-14D220425542022-12-06 13:55:3835.6091-77.379584435154Clb=-3.1m/s Type=DFM17 ser=[BC]22042554 Details on http://radiosondy.info
W4DEX-14D220425542022-12-06 13:55:2335.6089-77.381495435202Clb=-3.1m/s Type=DFM17 ser=[BC]22042554 Details on http://radiosondy.info
W4DEX-14D220425542022-12-06 13:55:0835.6087-77.383397415251Clb=-3.2m/s Type=DFM17 ser=[BC]22042554 Details on http://radiosondy.info
W4DEX-14D220425542022-12-06 13:54:5335.6087-77.385295415299Clb=-3.2m/s Type=DFM17 ser=[BC]22042554 Details on http://radiosondy.info
W4DEX-14D220425542022-12-06 13:54:3835.6088-77.387192435348Clb=-3.2m/s Type=DFM17 ser=[BC]22042554 Details on http://radiosondy.info
W4DEX-14D220425542022-12-06 13:54:2335.6092-77.38989435396Clb=-3.0m/s Type=DFM17 ser=[BC]22042554 Details on http://radiosondy.info
W4DEX-14D220425542022-12-06 13:54:0835.6095-77.3908102415444Clb=-3.0m/s Type=DFM17 ser=[BC]22042554 Details on http://radiosondy.info
W4DEX-14D220425542022-12-06 13:53:5335.6097-77.3926115395493Clb=-3.1m/s Type=DFM17 ser=[BC]22042554 Details on http://radiosondy.info
W4DEX-14D220425542022-12-06 13:53:3835.6099-77.3943105395542Clb=-3.0m/s Type=DFM17 ser=[BC]22042554 Details on http://radiosondy.info
W4DEX-14D220425542022-12-06 13:53:2335.6103-77.396198465590Clb=-3.3m/s Type=DFM17 ser=[BC]22042554 Details on http://radiosondy.info
W4DEX-14D220425542022-12-06 13:53:0835.6109-77.3981111485639Clb=-3.1m/s Type=DFM17 ser=[BC]22042554 Details on http://radiosondy.info
W4DEX-14D220425542022-12-06 13:52:5335.6114-77.4001121445687Clb=-3.1m/s Type=DFM17 ser=[BC]22042554 Details on http://radiosondy.info
W4DEX-14D220425542022-12-06 13:52:3835.6119-77.4021114445735Clb=-3.1m/s Type=DFM17 ser=[BC]22042554 Details on http://radiosondy.info
W4DEX-14D220425542022-12-06 13:52:2335.6126-77.404106485784Clb=-3.1m/s Type=DFM17 ser=[BC]22042554 Details on http://radiosondy.info
W4DEX-14D220425542022-12-06 13:52:0835.6134-77.406108545832Clb=-3.3m/s Type=DFM17 ser=[BC]22042554 Details on http://radiosondy.info
W4DEX-14D220425542022-12-06 13:51:5335.6142-77.4082121545885Clb=-3.3m/s Type=DFM17 ser=[BC]22042554 Details on http://radiosondy.info
W4DEX-14D220425542022-12-06 13:51:3835.6149-77.4105120505935Clb=-3.2m/s Type=DFM17 ser=[BC]22042554 Details on http://radiosondy.info
W4DEX-14D220425542022-12-06 13:51:2335.6155-77.4127108525983Clb=-3.1m/s Type=DFM17 ser=[BC]22042554 Details on http://radiosondy.info
W4DEX-14D220425542022-12-06 13:51:0835.6161-77.41598546030Clb=-3.1m/s Type=DFM17 ser=[BC]22042554 Details on http://radiosondy.info
W4DEX-14D220425542022-12-06 13:50:5335.6167-77.4173105546079Clb=-3.1m/s Type=DFM17 ser=[BC]22042554 Details on http://radiosondy.info
W4DEX-14D220425542022-12-06 13:50:3835.6173-77.4197116546126Clb=-3.0m/s Type=DFM17 ser=[BC]22042554 Details on http://radiosondy.info
W4DEX-14D220425542022-12-06 13:50:2335.6177-77.4221109576174Clb=-3.2m/s Type=DFM17 ser=[BC]22042554 Details on http://radiosondy.info
W4DEX-14D220425542022-12-06 13:50:1035.6184-77.4246102616226Clb=-3.4m/s Type=DFM17 ser=[BC]22042554 Details on http://radiosondy.info
W4DEX-14D220425542022-12-06 13:49:5335.6191-77.4272102676277Clb=-3.0m/s Type=DFM17 ser=[BC]22042554 Details on http://radiosondy.info
W4DEX-14D220425542022-12-06 13:49:3835.6199-77.4301117676328Clb=-3.4m/s Type=DFM17 ser=[BC]22042554 Details on http://radiosondy.info
W4DEX-14D220425542022-12-06 13:49:2335.6206-77.4331112696381Clb=-3.5m/s Type=DFM17 ser=[BC]22042554 Details on http://radiosondy.info
W4DEX-14D220425542022-12-06 13:49:0835.6213-77.4361108726433Clb=-3.2m/s Type=DFM17 ser=[BC]22042554 Details on http://radiosondy.info
W4DEX-14D220425542022-12-06 13:48:5335.6222-77.4392101746486Clb=-3.4m/s Type=DFM17 ser=[BC]22042554 Details on http://radiosondy.info
W4DEX-14D220425542022-12-06 13:48:3835.623-77.4424103746540Clb=-3.3m/s Type=DFM17 ser=[BC]22042554 Details on http://radiosondy.info
W4DEX-14D220425542022-12-06 13:48:2335.6238-77.4457114706596Clb=-3.4m/s Type=DFM17 ser=[BC]22042554 Details on http://radiosondy.info
W4DEX-14D220425542022-12-06 13:48:0835.6245-77.4488110746650Clb=-3.3m/s Type=DFM17 ser=[BC]22042554 Details on http://radiosondy.info
W4DEX-14D220425542022-12-06 13:47:5335.6254-77.4519106806706Clb=-3.7m/s Type=DFM17 ser=[BC]22042554 Details on http://radiosondy.info
W4DEX-14D220425542022-12-06 13:47:3835.6265-77.4553115806762Clb=-3.6m/s Type=DFM17 ser=[BC]22042554 Details on http://radiosondy.info
W4DEX-14D220425542022-12-06 13:47:2335.6276-77.4587119766819Clb=-3.9m/s Type=DFM17 ser=[BC]22042554 Details on http://radiosondy.info
W4DEX-14D220425542022-12-06 13:47:0835.6287-77.462113786878Clb=-3.9m/s Type=DFM17 ser=[BC]22042554 Details on http://radiosondy.info
W4DEX-14D220425542022-12-06 13:46:5335.6299-77.4652109806938Clb=-3.9m/s Type=DFM17 ser=[BC]22042554 Details on http://radiosondy.info
W4DEX-14D220425542022-12-06 13:46:3835.6311-77.4685112816998Clb=-4.1m/s Type=DFM17 ser=[BC]22042554 Details on http://radiosondy.info
W4DEX-14D220425542022-12-06 13:46:2335.6321-77.472117787059Clb=-4.1m/s Type=DFM17 ser=[BC]22042554 Details on http://radiosondy.info
W4DEX-14D220425542022-12-06 13:46:0835.6331-77.4754109767121Clb=-4.1m/s Type=DFM17 ser=[BC]22042554 Details on http://radiosondy.info
W4DEX-14D220425542022-12-06 13:45:5335.634-77.4787102787183Clb=-4.1m/s Type=DFM17 ser=[BC]22042554 Details on http://radiosondy.info
W4DEX-14D220425542022-12-06 13:45:3835.635-77.482112747244Clb=-4.1m/s Type=DFM17 ser=[BC]22042554 Details on http://radiosondy.info
W4DEX-14D220425542022-12-06 13:45:2335.6357-77.4853115727305Clb=-4.1m/s Type=DFM17 ser=[BC]22042554 Details on http://radiosondy.info
W4DEX-14D220425542022-12-06 13:45:0835.6365-77.4885108767368Clb=-4.1m/s Type=DFM17 ser=[BC]22042554 Details on http://radiosondy.info
W4DEX-14D220425542022-12-06 13:44:5335.6376-77.4917104767430Clb=-4.1m/s Type=DFM17 ser=[BC]22042554 Details on http://radiosondy.info
W4DEX-14D220425542022-12-06 13:44:3835.6386-77.4949110767493Clb=-4.2m/s Type=DFM17 ser=[BC]22042554 Details on http://radiosondy.info
W4DEX-14D220425542022-12-06 13:44:2335.6396-77.4982119707554Clb=-4.0m/s Type=DFM17 ser=[BC]22042554 Details on http://radiosondy.info
W4DEX-14D220425542022-12-06 13:44:0835.6405-77.5012110747616Clb=-4.1m/s Type=DFM17 ser=[BC]22042554 Details on http://radiosondy.info
W4DEX-14D220425542022-12-06 13:43:5335.6417-77.5043107817679Clb=-4.0m/s Type=DFM17 ser=[BC]22042554 Details on http://radiosondy.info
W4DEX-14D220425542022-12-06 13:43:3835.6428-77.5078118767739Clb=-4.0m/s Type=DFM17 ser=[BC]22042554 Details on http://radiosondy.info
W4DEX-14D220425542022-12-06 13:43:2335.6437-77.5111107837801Clb=-4.0m/s Type=DFM17 ser=[BC]22042554 Details on http://radiosondy.info
W4DEX-14D220425542022-12-06 13:43:0835.6449-77.5146111817862Clb=-4.2m/s Type=DFM17 ser=[BC]22042554 Details on http://radiosondy.info
W4DEX-14D220425542022-12-06 13:42:5335.6459-77.5182116787922Clb=-4.1m/s Type=DFM17 ser=[BC]22042554 Details on http://radiosondy.info
W4DEX-14D220425542022-12-06 13:42:3835.6469-77.5215104877983Clb=-4.2m/s Type=DFM17 ser=[BC]22042554 Details on http://radiosondy.info
W4DEX-14D220425542022-12-06 13:42:2335.648-77.5252118788045Clb=-4.1m/s Type=DFM17 ser=[BC]22042554 Details on http://radiosondy.info
W4DEX-14D220425542022-12-06 13:42:0835.649-77.5286111838105Clb=-4.1m/s Type=DFM17 ser=[BC]22042554 Details on http://radiosondy.info
W4DEX-14D220425542022-12-06 13:41:5335.6504-77.532114808166Clb=-4.0m/s Type=DFM17 ser=[BC]22042554 Details on http://radiosondy.info
W4DEX-14D220425542022-12-06 13:41:3835.6515-77.5354120728226Clb=-4.1m/s Type=DFM17 ser=[BC]22042554 Details on http://radiosondy.info
W4DEX-14D220425542022-12-06 13:41:2335.6526-77.5384110808284Clb=-3.8m/s Type=DFM17 ser=[BC]22042554 Details on http://radiosondy.info
W4DEX-14D220425542022-12-06 13:41:0835.654-77.5416120708343Clb=-4.1m/s Type=DFM17 ser=[BC]22042554 Details on http://radiosondy.info
W4DEX-14D220425542022-12-06 13:40:5335.655-77.5446114728402Clb=-3.9m/s Type=DFM17 ser=[BC]22042554 Details on http://radiosondy.info
W4DEX-14D220425542022-12-06 13:40:3835.6563-77.5475111728460Clb=-4.0m/s Type=DFM17 ser=[BC]22042554 Details on http://radiosondy.info
W4DEX-14D220425542022-12-06 13:40:2435.6574-77.5506124638517Clb=-4.1m/s Type=DFM17 ser=[BC]22042554 Details on http://radiosondy.info
W4DEX-14D220425542022-12-06 13:40:1135.6586-77.5532115708578Clb=-4.0m/s Type=DFM17 ser=[BC]22042554 Details on http://radiosondy.info
W4DEX-14D220425542022-12-06 13:39:5335.66-77.5559121698638Clb=-4.0m/s Type=DFM17 ser=[BC]22042554 Details on http://radiosondy.info
W4DEX-14D220425542022-12-06 13:39:3835.6611-77.5588118748699Clb=-4.0m/s Type=DFM17 ser=[BC]22042554 Details on http://radiosondy.info
W4DEX-14D220425542022-12-06 13:39:2335.6625-77.5617114838763Clb=-4.3m/s Type=DFM17 ser=[BC]22042554 Details on http://radiosondy.info
W4DEX-14D220425542022-12-06 13:39:0835.6639-77.5651124818825Clb=-4.2m/s Type=DFM17 ser=[BC]22042554 Details on http://radiosondy.info
W4DEX-14D220425542022-12-06 13:38:5335.6652-77.5685114898889Clb=-4.3m/s Type=DFM17 ser=[BC]22042554 Details on http://radiosondy.info
W4DEX-14D220425542022-12-06 13:38:3835.6667-77.5721113968953Clb=-4.2m/s Type=DFM17 ser=[BC]22042554 Details on http://radiosondy.info
W4DEX-14D220425542022-12-06 13:38:2335.668-77.5762116969018Clb=-4.1m/s Type=DFM17 ser=[BC]22042554 Details on http://radiosondy.info
W4DEX-14D220425542022-12-06 13:38:0835.6696-77.58021111049082Clb=-4.3m/s Type=DFM17 ser=[BC]22042554 Details on http://radiosondy.info
W4DEX-14D220425542022-12-06 13:37:5335.671-77.5847116969144Clb=-4.1m/s Type=DFM17 ser=[BC]22042554 Details on http://radiosondy.info
W4DEX-14D220425542022-12-06 13:37:3835.6724-77.58881091049206Clb=-4.1m/s Type=DFM17 ser=[BC]22042554 Details on http://radiosondy.info
W4DEX-14D220425542022-12-06 13:37:2335.674-77.59311171009268Clb=-4.2m/s Type=DFM17 ser=[BC]22042554 Details on http://radiosondy.info
W4DEX-14D220425542022-12-06 13:37:0835.6754-77.59731161029330Clb=-4.1m/s Type=DFM17 ser=[BC]22042554 Details on http://radiosondy.info
W4DEX-14D220425542022-12-06 13:36:5435.6772-77.60151141069392Clb=-4.2m/s Type=DFM17 ser=[BC]22042554 Details on http://radiosondy.info
W4DEX-14D220425542022-12-06 13:36:3835.6788-77.6061191049454Clb=-4.2m/s Type=DFM17 ser=[BC]22042554 Details on http://radiosondy.info
W4DEX-14D220425542022-12-06 13:36:2335.6805-77.61031121159516Clb=-4.3m/s Type=DFM17 ser=[BC]22042554 Details on http://radiosondy.info
W4DEX-14D220425542022-12-06 13:36:0835.6824-77.6151221079578Clb=-4.1m/s Type=DFM17 ser=[BC]22042554 Details on http://radiosondy.info
W4DEX-14D220425542022-12-06 13:35:5335.6842-77.61951151159641Clb=-4.3m/s Type=DFM17 ser=[BC]22042554 Details on http://radiosondy.info
W4DEX-14D220425542022-12-06 13:35:3835.6863-77.62411161179705Clb=-4.3m/s Type=DFM17 ser=[BC]22042554 Details on http://radiosondy.info
W4DEX-14D220425542022-12-06 13:35:2335.6883-77.62881241119768Clb=-4.2m/s Type=DFM17 ser=[BC]22042554 Details on http://radiosondy.info
W4DEX-14D220425542022-12-06 13:35:0835.6902-77.63331211119831Clb=-4.1m/s Type=DFM17 ser=[BC]22042554 Details on http://radiosondy.info
W4DEX-14D220425542022-12-06 13:34:5335.6924-77.63771171179894Clb=-4.1m/s Type=DFM17 ser=[BC]22042554 Details on http://radiosondy.info
W4DEX-14D220425542022-12-06 13:34:3835.6947-77.64221251099957Clb=-4.2m/s Type=DFM17 ser=[BC]22042554 Details on http://radiosondy.info
W4DEX-14D220425542022-12-06 13:34:2335.6968-77.646612410710021Clb=-4.1m/s Type=DFM17 ser=[BC]22042554 Details on http://radiosondy.info
W4DEX-14D220425542022-12-06 13:34:0835.699-77.650711511110084Clb=-4.1m/s Type=DFM17 ser=[BC]22042554 Details on http://radiosondy.info
W4DEX-14D220425542022-12-06 13:33:5335.701-77.655112110710147Clb=-4.3m/s Type=DFM17 ser=[BC]22042554 Details on http://radiosondy.info
W4DEX-14D220425542022-12-06 13:33:3835.7029-77.659512410410209Clb=-4.2m/s Type=DFM17 ser=[BC]22042554 Details on http://radiosondy.info
W4DEX-14D220425542022-12-06 13:33:2335.7048-77.663611610910273Clb=-4.2m/s Type=DFM17 ser=[BC]22042554 Details on http://radiosondy.info
W4DEX-14D220425542022-12-06 13:33:0835.707-77.667912110710337Clb=-4.5m/s Type=DFM17 ser=[BC]22042554 Details on http://radiosondy.info
W4DEX-14D220425542022-12-06 13:32:5335.7089-77.672312310710402Clb=-4.1m/s Type=DFM17 ser=[BC]22042554 Details on http://radiosondy.info
W4DEX-14D220425542022-12-06 13:32:3835.7111-77.676411811310465Clb=-4.1m/s Type=DFM17 ser=[BC]22042554 Details on http://radiosondy.info
W4DEX-14D220425542022-12-06 13:32:2335.7134-77.680812411510530Clb=-4.0m/s Type=DFM17 ser=[BC]22042554 Details on http://radiosondy.info
W4DEX-14D220425542022-12-06 13:32:0835.7157-77.685312711310593Clb=-4.2m/s Type=DFM17 ser=[BC]22042554 Details on http://radiosondy.info
W4DEX-14D220425542022-12-06 13:31:5335.7181-77.689612112210655Clb=-4.3m/s Type=DFM17 ser=[BC]22042554 Details on http://radiosondy.info
W4DEX-14D220425542022-12-06 13:31:3835.7207-77.694112511910719Clb=-4.3m/s Type=DFM17 ser=[BC]22042554 Details on http://radiosondy.info
W4DEX-14D220425542022-12-06 13:31:2335.7231-77.698712811510785Clb=-4.1m/s Type=DFM17 ser=[BC]22042554 Details on http://radiosondy.info
W4DEX-14D220425542022-12-06 13:31:0835.7254-77.703212212010851Clb=-4.5m/s Type=DFM17 ser=[BC]22042554 Details on http://radiosondy.info
W4DEX-14D220425542022-12-06 13:30:5335.7279-77.707711912410918Clb=-4.5m/s Type=DFM17 ser=[BC]22042554 Details on http://radiosondy.info
W4DEX-14D220425542022-12-06 13:30:3835.7304-77.712512412410983Clb=-4.5m/s Type=DFM17 ser=[BC]22042554 Details on http://radiosondy.info
W4DEX-14D220425542022-12-06 13:30:2335.7328-77.717412712011051Clb=-4.5m/s Type=DFM17 ser=[BC]22042554 Details on http://radiosondy.info
W4DEX-14D220425542022-12-06 13:30:1135.7352-77.722111913011119Clb=-4.2m/s Type=DFM17 ser=[BC]22042554 Details on http://radiosondy.info
W4DEX-14D220425542022-12-06 13:29:5335.7379-77.72712512611188Clb=-4.5m/s Type=DFM17 ser=[BC]22042554 Details on http://radiosondy.info
W4DEX-14D220425542022-12-06 13:29:3835.7404-77.731912712211256Clb=-4.5m/s Type=DFM17 ser=[BC]22042554 Details on http://radiosondy.info
W4DEX-14D220425542022-12-06 13:29:2335.7429-77.736512013111324Clb=-4.5m/s Type=DFM17 ser=[BC]22042554 Details on http://radiosondy.info
W4DEX-14D220425542022-12-06 13:29:0835.7458-77.741512812811391Clb=-4.5m/s Type=DFM17 ser=[BC]22042554 Details on http://radiosondy.info
W4DEX-14D220425542022-12-06 13:28:5335.7484-77.746412513111459Clb=-4.5m/s Type=DFM17 ser=[BC]22042554 Details on http://radiosondy.info
W4DEX-14D220425542022-12-06 13:28:3835.7514-77.751212313711528Clb=-4.5m/s Type=DFM17 ser=[BC]22042554 Details on http://radiosondy.info
W4DEX-14D220425542022-12-06 13:28:2335.7543-77.756413012811595Clb=-4.6m/s Type=DFM17 ser=[BC]22042554 Details on http://radiosondy.info
KD4EG-15D220425542022-12-06 13:28:1735.7565-77.759712312211641Clb=-4.7m/s t=-57.7C h=-1.0% p=-1.0hPa 403.400 MHz Type=DFM17 ser=22042554 Radiosonde
W4DEX-14D220425542022-12-06 13:28:0835.7571-77.76112213311663Clb=-4.5m/s Type=DFM17 ser=[BC]22042554 Details on http://radiosondy.info
W4DEX-14D220425542022-12-06 13:27:5335.7601-77.765912911911731Clb=-4.8m/s Type=DFM17 ser=[BC]22042554 Details on http://radiosondy.info
KD4EG-15D220425542022-12-06 13:27:4535.762-77.769112012011777Clb=-4.6m/s t=-58.4C h=-1.0% p=-1.0hPa 403.400 MHz Type=DFM17 ser=22042554 Radiosonde
W4DEX-14D220425542022-12-06 13:27:3835.7626-77.770412113111800Clb=-4.6m/s Type=DFM17 ser=[BC]22042554 Details on http://radiosondy.info
W4DEX-14D220425542022-12-06 13:27:2335.7654-77.775412613011871Clb=-4.9m/s Type=DFM17 ser=[BC]22042554 Details on http://radiosondy.info
W4DEX-14D220425542022-12-06 13:27:0835.7679-77.780512314111940Clb=-4.2m/s Type=DFM17 ser=[BC]22042554 Details on http://radiosondy.info
W4DEX-14D220425542022-12-06 13:26:5335.7708-77.785911915012009Clb=-4.5m/s Type=DFM17 ser=[BC]22042554 Details on http://radiosondy.info
W4DEX-14D220425542022-12-06 13:26:3835.7735-77.791912414412082Clb=-4.9m/s Type=DFM17 ser=[BC]22042554 Details on http://radiosondy.info
W4DEX-14D220425542022-12-06 13:26:2335.7764-77.797511614612158Clb=-5.0m/s Type=DFM17 ser=[BC]22042554 Details on http://radiosondy.info
W4DEX-14D220425542022-12-06 13:26:0835.7791-77.803311914312233Clb=-5.1m/s Type=DFM17 ser=[BC]22042554 Details on http://radiosondy.info
W4DEX-14D220425542022-12-06 13:25:5335.7814-77.809311615712311Clb=-4.9m/s Type=DFM17 ser=[BC]22042554 Details on http://radiosondy.info
W4DEX-14D220425542022-12-06 13:25:4135.7842-77.815712414112390Clb=-5.3m/s Type=DFM17 ser=[BC]22042554 Details on http://radiosondy.info
W4DEX-14D220425542022-12-06 13:25:2635.7869-77.821211714812470Clb=-5.3m/s Type=DFM17 ser=[BC]22042554 Details on http://radiosondy.info
KD4EG-15D220425542022-12-06 13:25:1135.7891-77.826911815412540Clb=-5.5m/s t=-60.4C h=-1.0% p=-1.0hPa 403.400 MHz Type=DFM17 ser=22042554 Radiosonde
W4DEX-14D220425542022-12-06 13:25:0835.7893-77.827312014612551Clb=-5.4m/s Type=DFM17 ser=[BC]22042554 Details on http://radiosondy.info
W4DEX-14D220425542022-12-06 13:24:5335.7918-77.833311515712633Clb=-5.4m/s Type=DFM17 ser=[BC]22042554 Details on http://radiosondy.info
W4DEX-14D220425542022-12-06 13:24:3935.7944-77.839912015412715Clb=-5.4m/s Type=DFM17 ser=[BC]22042554 Details on http://radiosondy.info
W4DEX-14D220425542022-12-06 13:24:2335.7967-77.846311316512798Clb=-5.7m/s Type=DFM17 ser=[BC]22042554 Details on http://radiosondy.info
W4DEX-14D220425542022-12-06 13:24:0935.7994-77.853111516712881Clb=-5.6m/s Type=DFM17 ser=[BC]22042554 Details on http://radiosondy.info
W4DEX-14D220425542022-12-06 13:23:5335.8017-77.860311317412966Clb=-5.5m/s Type=DFM17 ser=[BC]22042554 Details on http://radiosondy.info
W4DEX-14D220425542022-12-06 13:23:3835.8045-77.867611218113050Clb=-5.5m/s Type=DFM17 ser=[BC]22042554 Details on http://radiosondy.info
KD4EG-15D220425542022-12-06 13:23:3735.8049-77.86911017413061Clb=-5.6m/s t=-61.8C h=-1.0% p=-1.0hPa 403.400 MHz Type=DFM17 ser=22042554 Radiosonde
W4DEX-14D220425542022-12-06 13:23:1935.8922-78.13071187418398Clb=-7.2m/s Type=DFM17 ser=[BC]22042554 Details on http://radiosondy.info
W4DEX-14D220425542022-12-06 13:23:0035.8929-78.13411049418505Clb=-7.0m/s Type=DFM17 ser=[BC]22042554 Details on http://radiosondy.info
W4DEX-14D220425542022-12-06 13:22:4235.8943-78.13811227618608Clb=-6.7m/s Type=DFM17 ser=[BC]22042554 Details on http://radiosondy.info
W4DEX-14D220425542022-12-06 13:22:1935.8959-78.14091324618714Clb=-7.2m/s Type=DFM17 ser=[BC]22042554 Details on http://radiosondy.info
W4DEX-14D220425542022-12-06 13:22:0135.8968-78.14271185618822Clb=-7.1m/s Type=DFM17 ser=[BC]22042554 Details on http://radiosondy.info
KD4EG-15D220425542022-12-06 13:21:5935.8971-78.14331315718844Clb=-7.5m/s t=-63.9C h=-1.0% p=-1.0hPa 403.400 MHz Type=DFM17 ser=22042554 Radiosonde
W4DEX-14D220425542022-12-06 13:21:4335.8983-78.14441523018934Clb=-7.3m/s Type=DFM17 ser=[BC]22042554 Details on http://radiosondy.info
W4DEX-14D220425542022-12-06 13:21:2535.8992-78.1451353119050Clb=-7.8m/s Type=DFM17 ser=[BC]22042554 Details on http://radiosondy.info
KD4EG-15D220425542022-12-06 13:21:2235.8993-78.14531073019087Clb=-7.6m/s t=-63.7C h=-1.0% p=-1.0hPa 403.400 MHz Type=DFM17 ser=22042554 Radiosonde
W4DEX-14D220425542022-12-06 13:21:0735.8998-78.14621412019167Clb=-7.7m/s Type=DFM17 ser=[BC]22042554 Details on http://radiosondy.info
W4DEX-14D220425542022-12-06 13:20:4835.9004-78.1466893019289Clb=-8.4m/s Type=DFM17 ser=[BC]22042554 Details on http://radiosondy.info
KD4EG-15D220425542022-12-06 13:20:4435.9003-78.1473943519357Clb=-8.6m/s t=-63.4C h=-1.0% p=-1.0hPa 403.400 MHz Type=DFM17 ser=22042554 Radiosonde
W4DEX-14D220425542022-12-06 13:20:2935.9004-78.1481153519420Clb=-8.5m/s Type=DFM17 ser=[BC]22042554 Details on http://radiosondy.info
W4DEX-14D220425542022-12-06 13:20:0235.9009-78.1494864119557Clb=-8.9m/s Type=DFM17 ser=[BC]22042554 Details on http://radiosondy.info
KD4EG-15D220425542022-12-06 13:19:5735.9009-78.1502954819601Clb=-9.2m/s t=-62.6C h=-1.0% p=-1.0hPa 403.400 MHz Type=DFM17 ser=22042554 Radiosonde
W4DEX-14D220425542022-12-06 13:19:4235.9011-78.15131331319698Clb=-9.5m/s Type=DFM17 ser=[BC]22042554 Details on http://radiosondy.info
W4DEX-14D220425542022-12-06 13:19:2135.9011-78.1517493119842Clb=-9.3m/s Type=DFM17 ser=[BC]22042554 Details on http://radiosondy.info
KD4EG-15D220425542022-12-06 13:19:1435.9008-78.1524843319910Clb=-9.5m/s t=-63.3C h=-1.0% p=-1.0hPa 403.400 MHz Type=DFM17 ser=22042554 Radiosonde
W4DEX-14D220425542022-12-06 13:19:0135.9009-78.15311191719987Clb=-9.1m/s Type=DFM17 ser=[BC]22042554 Details on http://radiosondy.info
W4DEX-14D220425542022-12-06 13:18:4335.9013-78.1536492220131Clb=-9.4m/s Type=DFM17 ser=[BC]22042554 Details on http://radiosondy.info
KD4EG-15D220425542022-12-06 13:18:3535.9011-78.154592820208Clb=-9.6m/s t=-64.0C h=-1.0% p=-1.0hPa 403.400 MHz Type=DFM17 ser=22042554 Radiosonde
W4DEX-14D220425542022-12-06 13:18:2235.9009-78.1545854820275Clb=-9.5m/s Type=DFM17 ser=[BC]22042554 Details on http://radiosondy.info
W4DEX-14D220425542022-12-06 13:18:0435.9013-78.15671113720419Clb=-9.6m/s Type=DFM17 ser=[BC]22042554 Details on http://radiosondy.info
KD4EG-15D220425542022-12-06 13:17:5335.9014-78.1583784620552Clb=-9.1m/s t=-63.2C h=-1.0% p=-1.0hPa 403.400 MHz Type=DFM17 ser=22042554 Radiosonde
W4DEX-14D220425542022-12-06 13:17:4235.9014-78.1583804820561Clb=-8.9m/s Type=DFM17 ser=[BC]22042554 Details on http://radiosondy.info
W4DEX-14D220425542022-12-06 13:17:2035.9016-78.16051192620704Clb=-9.6m/s Type=DFM17 ser=[BC]22042554 Details on http://radiosondy.info
KD4EG-15D220425542022-12-06 13:17:0735.9021-78.16141021120820Clb=-9.9m/s t=-64.0C h=-1.0% p=-1.0hPa 403.400 MHz Type=DFM17 ser=22042554 Radiosonde
W4DEX-14D220425542022-12-06 13:16:5935.9021-78.1614633120850Clb=-10.2m/s Type=DFM17 ser=[BC]22042554 Details on http://radiosondy.info
W4DEX-14D220425542022-12-06 13:16:4035.9016-78.1628882021004Clb=-10.3m/s Type=DFM17 ser=[BC]22042554 Details on http://radiosondy.info
KD4EG-15D220425542022-12-06 13:16:2635.9014-78.1634182221129Clb=-10.3m/s t=-64.0C h=-1.0% p=-1.0hPa 403.400 MHz Type=DFM17 ser=22042554 Radiosonde
W4DEX-14D220425542022-12-06 13:16:2135.9013-78.1635254821161Clb=-10.8m/s Type=DFM17 ser=[BC]22042554 Details on http://radiosondy.info
W4DEX-14D220425542022-12-06 13:16:0435.9-78.1651656121324Clb=-10.6m/s Type=DFM17 ser=[BC]22042554 Details on http://radiosondy.info
KD4EG-15D220425542022-12-06 13:15:4835.8997-78.1676965421468Clb=-11.1m/s t=-61.6C h=-1.0% p=-1.0hPa 403.400 MHz Type=DFM17 ser=22042554 Radiosonde
W4DEX-14D220425542022-12-06 13:15:4435.8997-78.16781003321490Clb=-10.9m/s Type=DFM17 ser=[BC]22042554 Details on http://radiosondy.info
W4DEX-14D220425542022-12-06 13:15:2235.8997-78.1693625421658Clb=-11.4m/s Type=DFM17 ser=[BC]22042554 Details on http://radiosondy.info
KD4EG-15D220425542022-12-06 13:15:0335.8995-78.17151024821807Clb=-11.2m/s t=-61.8C h=-1.0% p=-1.0hPa 403.400 MHz Type=DFM17 ser=22042554 Radiosonde
W4DEX-14D220425542022-12-06 13:15:0035.8995-78.17171043321830Clb=-11.6m/s Type=DFM17 ser=[BC]22042554 Details on http://radiosondy.info
W4DEX-14D220425542022-12-06 13:14:4135.8993-78.1731665222003Clb=-11.0m/s Type=DFM17 ser=[BC]22042554 Details on http://radiosondy.info
KD4EG-15D220425542022-12-06 13:14:2235.8993-78.17561103722177Clb=-11.8m/s t=-61.9C h=-1.0% p=-1.0hPa 403.400 MHz Type=DFM17 ser=22042554 Radiosonde
W4DEX-14D220425542022-12-06 13:14:2035.8992-78.17541113522177Clb=-11.7m/s Type=DFM17 ser=[BC]22042554 Details on http://radiosondy.info
W4DEX-14D220425542022-12-06 13:14:0235.8991-78.177724422352Clb=-11.4m/s Type=DFM17 ser=[BC]22042554 Details on http://radiosondy.info
KD4EG-15D220425542022-12-06 13:13:4235.8991-78.1791081922529Clb=-11.3m/s t=-62.4C h=-1.0% p=-1.0hPa 403.400 MHz Type=DFM17 ser=22042554 Radiosonde
W4DEX-14D220425542022-12-06 13:13:4135.8991-78.1791091722529Clb=-11.2m/s Type=DFM17 ser=[BC]22042554 Details on http://radiosondy.info
W4DEX-14D220425542022-12-06 13:13:1935.8987-78.1794343522710Clb=-12.1m/s Type=DFM17 ser=[BC]22042554 Details on http://radiosondy.info
W4DEX-14D220425542022-12-06 13:12:5635.8983-78.1808783922893Clb=-12.6m/s Type=DFM17 ser=[BC]22042554 Details on http://radiosondy.info
KD4EG-15D220425542022-12-06 13:12:5535.8982-78.1809562022905Clb=-12.5m/s t=-62.1C h=-1.0% p=-1.0hPa 403.400 MHz Type=DFM17 ser=22042554 Radiosonde
W4DEX-14D220425542022-12-06 13:12:3535.8977-78.1825845423083Clb=-12.6m/s Type=DFM17 ser=[BC]22042554 Details on http://radiosondy.info
W4DEX-14D220425542022-12-06 13:12:1435.898-78.1849825723275Clb=-12.9m/s Type=DFM17 ser=[BC]22042554 Details on http://radiosondy.info
KD4EG-15D220425542022-12-06 13:12:1235.8979-78.1855825723314Clb=-12.9m/s t=-60.6C h=-1.0% p=-1.0hPa 403.400 MHz Type=DFM17 ser=22042554 Radiosonde
W4DEX-14D220425542022-12-06 13:12:0135.8982-78.18751143723467Clb=-12.5m/s Type=DFM17 ser=[BC]22042554 Details on http://radiosondy.info
W4DEX-14D220425542022-12-06 13:12:0035.8984-78.189644823660Clb=-13.1m/s Type=DFM17 ser=[BC]22042554 Details on http://radiosondy.info
KD4EG-15D220425542022-12-06 13:11:5935.8983-78.1896775723700Clb=-13.2m/s t=-60.3C h=-1.0% p=-1.0hPa 403.400 MHz Type=DFM17 ser=22042554 Radiosonde
W4DEX-14D220425542022-12-06 13:11:5635.8984-78.1911154623860Clb=-13.4m/s Type=DFM17 ser=[BC]22042554 Details on http://radiosondy.info
W4DEX-14D220425542022-12-06 13:11:5235.8981-78.1931915224061Clb=-12.9m/s Type=DFM17 ser=[BC]22042554 Details on http://radiosondy.info
W4DEX-14D220425542022-12-06 13:11:4935.8981-78.1954658024263Clb=-13.8m/s Type=DFM17 ser=[BC]22042554 Details on http://radiosondy.info
W4DEX-14D220425542022-12-06 13:11:4635.8969-78.1988836724466Clb=-13.6m/s Type=DFM17 ser=[BC]22042554 Details on http://radiosondy.info
KD4EG-15D220425542022-12-06 13:11:4535.8967-78.1999665724534Clb=-13.5m/s t=-55.7C h=-1.0% p=-1.0hPa 403.400 MHz Type=DFM17 ser=22042554 Radiosonde
W4DEX-14D220425542022-12-06 13:11:4235.8959-78.2016688724673Clb=-14.0m/s Type=DFM17 ser=[BC]22042554 Details on http://radiosondy.info
W4DEX-14D220425542022-12-06 13:11:3935.8956-78.20551056724891Clb=-14.1m/s Type=DFM17 ser=[BC]22042554 Details on http://radiosondy.info
KD4EG-15D220425542022-12-06 13:11:3835.8957-78.2067895724979Clb=-14.8m/s t=-56.1C h=-1.0% p=-1.0hPa 403.400 MHz Type=DFM17 ser=22042554 Radiosonde
W4DEX-14D220425542022-12-06 13:11:3735.8964-78.2123908325334Clb=-14.5m/s Type=DFM17 ser=[BC]22042554 Details on http://radiosondy.info
W4DEX-14D220425542022-12-06 13:11:3635.8965-78.21611056325563Clb=-14.7m/s Type=DFM17 ser=[BC]22042554 Details on http://radiosondy.info
W4DEX-14D220425542022-12-06 13:11:2835.8962-78.2189917825798Clb=-15.3m/s Type=DFM17 ser=[BC]22042554 Details on http://radiosondy.info
KD4EG-15D220425542022-12-06 13:11:2335.8966-78.22121147025920Clb=-15.4m/s t=-53.9C h=-1.0% p=-1.0hPa 403.400 MHz Type=DFM17 ser=22042554 Radiosonde
W4DEX-14D220425542022-12-06 13:11:1735.8969-78.2223956726029Clb=-15.6m/s Type=DFM17 ser=[BC]22042554 Details on http://radiosondy.info
W4DEX-14D220425542022-12-06 13:10:5835.8964-78.22537710626263Clb=-15.9m/s Type=DFM17 ser=[BC]22042554 Details on http://radiosondy.info
KD4EG-15D220425542022-12-06 13:10:4535.8962-78.22910010426425Clb=-16.6m/s t=-52.6C h=-1.0% p=-1.0hPa 403.400 MHz Type=DFM17 ser=22042554 Radiosonde
W4DEX-14D220425542022-12-06 13:10:3635.8964-78.2301979626509Clb=-17.2m/s Type=DFM17 ser=[BC]22042554 Details on http://radiosondy.info
W4DEX-14D220425542022-12-06 13:10:1435.8958-78.2345899826767Clb=-17.1m/s Type=DFM17 ser=[BC]22042554 Details on http://radiosondy.info
KD4EG-15D220425542022-12-06 13:09:5435.8954-78.23767210226941Clb=-17.7m/s t=-50.5C h=-1.0% p=-1.0hPa 403.400 MHz Type=DFM17 ser=22042554 Radiosonde
W4DEX-14D220425542022-12-06 13:09:4735.8951-78.2389799127028Clb=-17.3m/s Type=DFM17 ser=[BC]22042554 Details on http://radiosondy.info
W4DEX-14D220425542022-12-06 13:09:1935.895-78.2429738527305Clb=-18.4m/s Type=DFM17 ser=[BC]22042554 Details on http://radiosondy.info
KD4EG-15D220425542022-12-06 13:09:0035.8947-78.2466825927546Clb=-18.9m/s t=-51.6C h=-1.0% p=-1.0hPa 403.400 MHz Type=DFM17 ser=22042554 Radiosonde
W4DEX-14D220425542022-12-06 13:08:5435.8947-78.2468779427584Clb=-18.8m/s Type=DFM17 ser=[BC]22042554 Details on http://radiosondy.info
W4DEX-14D220425542022-12-06 13:08:2935.8932-78.2508769827868Clb=-19.6m/s Type=DFM17 ser=[BC]22042554 Details on http://radiosondy.info
KD4EG-15D220425542022-12-06 13:08:0535.893-78.255876328118Clb=-19.1m/s t=-50.1C h=-1.0% p=-1.0hPa 403.400 MHz Type=DFM17 ser=22042554 Radiosonde
W4DEX-14D220425542022-12-06 13:07:5935.893-78.2552879128157Clb=-19.5m/s Type=DFM17 ser=[BC]22042554 Details on http://radiosondy.info
W4DEX-14D220425542022-12-06 13:07:3035.8919-78.25927613028448Clb=-19.1m/s Type=DFM17 ser=[BC]22042554 Details on http://radiosondy.info
KD4EG-15D220425542022-12-06 13:07:0735.8917-78.26529311128719Clb=-19.3m/s t=-50.2C h=-1.0% p=-1.0hPa 403.400 MHz Type=DFM17 ser=22042554 Radiosonde
W4DEX-14D220425542022-12-06 13:07:0435.8917-78.2652949128738Clb=-19.3m/s Type=DFM17 ser=[BC]22042554 Details on http://radiosondy.info
W4DEX-14D220425542022-12-06 13:06:4035.8915-78.2692738929034Clb=-20.0m/s Type=DFM17 ser=[BC]22042554 Details on http://radiosondy.info
KD4EG-15D220425542022-12-06 13:06:2035.8899-78.27316110629338Clb=-20.9m/s t=-48.3C h=-1.0% p=-1.0hPa 403.400 MHz Type=DFM17 ser=22042554 Radiosonde
W4DEX-14D220425542022-12-06 13:06:1935.89-78.27296411729339Clb=-20.8m/s Type=DFM17 ser=[BC]22042554 Details on http://radiosondy.info
W4DEX-14D220425542022-12-06 13:05:5635.8884-78.27787515229655Clb=-21.1m/s Type=DFM17 ser=[BC]22042554 Details on http://radiosondy.info
W4DEX-14D220425542022-12-06 13:05:3435.888-78.28489511529976Clb=-22.0m/s Type=DFM17 ser=[BC]22042554 Details on http://radiosondy.info
KD4EG-15D220425542022-12-06 13:05:3335.8881-78.28579714429998Clb=-22.4m/s t=-48.1C h=-1.0% p=-1.0hPa 403.400 MHz Type=DFM17 ser=22042554 Radiosonde
W4DEX-14D220425542022-12-06 13:05:1235.8885-78.28997713930321Clb=-22.9m/s Type=DFM17 ser=[BC]22042554 Details on http://radiosondy.info
W4DEX-14D220425542022-12-06 13:04:4735.8881-78.29639315430686Clb=-22.3m/s Type=DFM17 ser=[BC]22042554 Details on http://radiosondy.info
KD4EG-15D220425542022-12-06 13:04:4635.8881-78.29838616330758Clb=-27.0m/s t=-45.3C h=-1.0% p=-1.0hPa 403.400 MHz Type=DFM17 ser=22042554 Radiosonde
W4DEX-14D220425542022-12-06 13:04:2035.8878-78.30349116131146Clb=-34.6m/s Type=DFM17 ser=[BC]22042554 Details on http://radiosondy.info
W4DEX-14D220425542022-12-06 13:03:5335.8876-78.31078816531720Clb=-41.0m/s Type=DFM17 ser=[BC]22042554 Details on http://radiosondy.info
KD4EG-15D220425542022-12-06 13:03:4835.8876-78.31278716131847Clb=-43.9m/s t=-40.8C h=-1.0% p=-1.0hPa 403.400 MHz Type=DFM17 ser=22042554 Radiosonde
W4DEX-14D220425542022-12-06 13:03:2335.8874-78.31838617032355Clb=-42.4m/s Type=DFM17 ser=[BC]22042554 Details on http://radiosondy.info
W4DEX-14D220425542022-12-06 13:03:0535.8868-78.3267417032886Clb=6.6m/s Type=DFM17 ser=[BC]22042554 Details on http://radiosondy.info
KD4EG-15D220425542022-12-06 13:03:0135.8866-78.32859317632856Clb=8.2m/s t=-39.5C h=-1.0% p=-1.0hPa 403.400 MHz Type=DFM17 ser=22042554 Radiosonde
W4DEX-14D220425542022-12-06 13:02:4235.8865-78.33449617632780Clb=5.0m/s Type=DFM17 ser=[BC]22042554 Details on http://radiosondy.info
W4DEX-14D220425542022-12-06 13:02:1835.8859-78.34247917232677Clb=7.1m/s Type=DFM17 ser=[BC]22042554 Details on http://radiosondy.info
KD4EG-15D220425542022-12-06 13:02:1235.8858-78.3458716532650Clb=6.7m/s t=-40.1C h=-1.0% p=-1.0hPa 403.400 MHz Type=DFM17 ser=22042554 Radiosonde
W4DEX-14D220425542022-12-06 13:01:5535.8853-78.35027916732575Clb=5.4m/s Type=DFM17 ser=[BC]22042554 Details on http://radiosondy.info
W4DEX-14D220425542022-12-06 13:01:3535.8845-78.35788516932478Clb=8.6m/s Type=DFM17 ser=[BC]22042554 Details on http://radiosondy.info
KD4EG-15D220425542022-12-06 13:01:2435.884-78.36098717432447Clb=11.0m/s t=-40.6C h=-1.0% p=-1.0hPa 403.400 MHz Type=DFM17 ser=22042554 Radiosonde
W4DEX-14D220425542022-12-06 13:01:0435.8836-78.36548517032369Clb=8.1m/s Type=DFM17 ser=[BC]22042554 Details on http://radiosondy.info
W4DEX-14D220425542022-12-06 13:00:3835.8836-78.37318717032280Clb=8.4m/s Type=DFM17 ser=[BC]22042554 Details on http://radiosondy.info
KD4EG-15D220425542022-12-06 13:00:2935.8833-78.37759715732228Clb=8.0m/s t=-40.7C h=-1.0% p=-1.0hPa 403.400 MHz Type=DFM17 ser=22042554 Radiosonde
W4DEX-14D220425542022-12-06 13:00:0635.8833-78.38099117232170Clb=5.2m/s Type=DFM17 ser=[BC]22042554 Details on http://radiosondy.info
W4DEX-14D220425542022-12-06 12:59:3635.8834-78.38889217232064Clb=9.5m/s Type=DFM17 ser=[BC]22042554 Details on http://radiosondy.info
KD4EG-15D220425542022-12-06 12:59:2235.8836-78.39288116132013Clb=4.5m/s t=-40.7C h=-1.0% p=-1.0hPa 403.400 MHz Type=DFM17 ser=22042554 Radiosonde
W4DEX-14D220425542022-12-06 12:59:0235.8837-78.39669316531952Clb=7.2m/s Type=DFM17 ser=[BC]22042554 Details on http://radiosondy.info
W4DEX-14D220425542022-12-06 12:58:3435.8837-78.40429016531840Clb=8.2m/s Type=DFM17 ser=[BC]22042554 Details on http://radiosondy.info
KD4EG-15D220425542022-12-06 12:58:1535.8836-78.40898918731779Clb=4.4m/s t=-42.1C h=-1.0% p=-1.0hPa 403.400 MHz Type=DFM17 ser=22042554 Radiosonde
W4DEX-14D220425542022-12-06 12:57:5935.8835-78.41179116531722Clb=7.5m/s Type=DFM17 ser=[BC]22042554 Details on http://radiosondy.info
W4DEX-14D220425542022-12-06 12:57:2935.8835-78.41938316931605Clb=5.9m/s Type=DFM17 ser=[BC]22042554 Details on http://radiosondy.info
KD4EG-15D220425542022-12-06 12:57:1335.8834-78.42438316131533Clb=7.5m/s t=-41.9C h=-1.0% p=-1.0hPa 403.400 MHz Type=DFM17 ser=22042554 Radiosonde
W4DEX-14D220425542022-12-06 12:57:0135.8834-78.4279315931483Clb=8.3m/s Type=DFM17 ser=[BC]22042554 Details on http://radiosondy.info
W4DEX-14D220425542022-12-06 12:56:3635.8836-78.43449116331369Clb=6.9m/s Type=DFM17 ser=[BC]22042554 Details on http://radiosondy.info
KD4EG-15D220425542022-12-06 12:56:1835.8837-78.43998817031292Clb=9.4m/s t=-42.8C h=-1.0% p=-1.0hPa 403.400 MHz Type=DFM17 ser=22042554 Radiosonde
W4DEX-14D220425542022-12-06 12:56:1035.8836-78.44179216131251Clb=7.7m/s Type=DFM17 ser=[BC]22042554 Details on http://radiosondy.info
W4DEX-14D220425542022-12-06 12:55:4435.8836-78.44919015431142Clb=7.4m/s Type=DFM17 ser=[BC]22042554 Details on http://radiosondy.info
KD4EG-15D220425542022-12-06 12:55:2235.8838-78.455210015931054Clb=4.5m/s t=-43.3C h=-1.0% p=-1.0hPa 403.400 MHz Type=DFM17 ser=22042554 Radiosonde
W4DEX-14D220425542022-12-06 12:55:1535.8839-78.45618914831034Clb=8.1m/s Type=DFM17 ser=[BC]22042554 Details on http://radiosondy.info
W4DEX-14D220425542022-12-06 12:54:4635.8836-78.4639015430931Clb=4.0m/s Type=DFM17 ser=[BC]22042554 Details on http://radiosondy.info
KD4EG-15D220425542022-12-06 12:54:2635.8833-78.46958514130843Clb=4.8m/s t=-44.4C h=-1.0% p=-1.0hPa 403.400 MHz Type=DFM17 ser=22042554 Radiosonde
W4DEX-14D220425542022-12-06 12:54:2235.8833-78.46998915630830Clb=8.6m/s Type=DFM17 ser=[BC]22042554 Details on http://radiosondy.info
W4DEX-14D220425542022-12-06 12:53:5635.8831-78.4779015430733Clb=7.3m/s Type=DFM17 ser=[BC]22042554 Details on http://radiosondy.info
KD4EG-15D220425542022-12-06 12:53:3135.8834-78.4849214330648Clb=7.6m/s t=-46.2C h=-1.0% p=-1.0hPa 403.400 MHz Type=DFM17 ser=22042554 Radiosonde
W4DEX-14D220425542022-12-06 12:53:2835.8834-78.48419213530641Clb=7.5m/s Type=DFM17 ser=[BC]22042554 Details on http://radiosondy.info
W4DEX-14D220425542022-12-06 12:53:0335.8835-78.49029114430556Clb=3.4m/s Type=DFM17 ser=[BC]22042554 Details on http://radiosondy.info
KD4EG-15D220425542022-12-06 12:52:3735.8829-78.49718312630467Clb=6.3m/s t=-48.5C h=-1.0% p=-1.0hPa 403.400 MHz Type=DFM17 ser=22042554 Radiosonde
W4DEX-14D220425542022-12-06 12:52:3635.883-78.49678413130467Clb=6.2m/s Type=DFM17 ser=[BC]22042554 Details on http://radiosondy.info
W4DEX-14D220425542022-12-06 12:51:5735.8824-78.50268211930377Clb=4.3m/s Type=DFM17 ser=[BC]22042554 Details on http://radiosondy.info
W4DEX-14D220425542022-12-06 12:51:3035.8821-78.50818211930282Clb=5.4m/s Type=DFM17 ser=[BC]22042554 Details on http://radiosondy.info
W4DEX-14D220425542022-12-06 12:51:0335.8819-78.51369812630189Clb=5.6m/s Type=DFM17 ser=[BC]22042554 Details on http://radiosondy.info
W4DEX-14D220425542022-12-06 12:50:3535.8818-78.51939413030083Clb=7.5m/s Type=DFM17 ser=[BC]22042554 Details on http://radiosondy.info
KD4EG-15D220425542022-12-06 12:50:3235.8819-78.52059012430072Clb=5.4m/s t=-48.3C h=-1.0% p=-1.0hPa 403.400 MHz Type=DFM17 ser=22042554 Radiosonde
W4DEX-14D220425542022-12-06 12:50:0335.8816-78.52538414129983Clb=8.0m/s Type=DFM17 ser=[BC]22042554 Details on http://radiosondy.info
W4DEX-14D220425542022-12-06 12:49:3335.8813-78.53178313329876Clb=8.0m/s Type=DFM17 ser=[BC]22042554 Details on http://radiosondy.info
KD4EG-15D220425542022-12-06 12:49:2635.8812-78.53348913329855Clb=5.2m/s t=-48.5C h=-1.0% p=-1.0hPa 403.400 MHz Type=DFM17 ser=22042554 Radiosonde
W4DEX-14D220425542022-12-06 12:48:5935.8809-78.53777612429769Clb=5.0m/s Type=DFM17 ser=[BC]22042554 Details on http://radiosondy.info
W4DEX-14D220425542022-12-06 12:48:2935.8803-78.54338211929663Clb=9.5m/s Type=DFM17 ser=[BC]22042554 Details on http://radiosondy.info
KD4EG-15D220425542022-12-06 12:48:2235.8797-78.54767910729580Clb=7.7m/s t=-48.8C h=-1.0% p=-1.0hPa 403.400 MHz Type=DFM17 ser=22042554 Radiosonde
W4DEX-14D220425542022-12-06 12:47:5735.8795-78.54877711729552Clb=8.1m/s Type=DFM17 ser=[BC]22042554 Details on http://radiosondy.info
W4DEX-14D220425542022-12-06 12:47:2435.8786-78.55389011529447Clb=6.3m/s Type=DFM17 ser=[BC]22042554 Details on http://radiosondy.info
KD4EG-15D220425542022-12-06 12:47:1535.8782-78.55597011929410Clb=8.2m/s t=-48.5C h=-1.0% p=-1.0hPa 403.400 MHz Type=DFM17 ser=22042554 Radiosonde
W4DEX-14D220425542022-12-06 12:46:5635.8775-78.55898211529338Clb=4.9m/s Type=DFM17 ser=[BC]22042554 Details on http://radiosondy.info
W4DEX-14D220425542022-12-06 12:46:3035.8762-78.56387010229229Clb=6.2m/s Type=DFM17 ser=[BC]22042554 Details on http://radiosondy.info
KD4EG-15D220425542022-12-06 12:46:2035.8755-78.5664799629174Clb=5.3m/s t=-49.7C h=-1.0% p=-1.0hPa 403.400 MHz Type=DFM17 ser=22042554 Radiosonde
W4DEX-14D220425542022-12-06 12:46:0135.8748-78.56826810429127Clb=10.0m/s Type=DFM17 ser=[BC]22042554 Details on http://radiosondy.info
W4DEX-14D220425542022-12-06 12:45:3335.8738-78.57278910229018Clb=6.0m/s Type=DFM17 ser=[BC]22042554 Details on http://radiosondy.info
KD4EG-15D220425542022-12-06 12:45:1635.8733-78.57579510228956Clb=7.4m/s t=-49.7C h=-1.0% p=-1.0hPa 403.401 MHz Type=DFM17 ser=22042554 Radiosonde
W4DEX-14D220425542022-12-06 12:44:5735.8732-78.57727010628916Clb=6.6m/s Type=DFM17 ser=[BC]22042554 Details on http://radiosondy.info
W4DEX-14D220425542022-12-06 12:44:2935.8726-78.5827712228815Clb=7.3m/s Type=DFM17 ser=[BC]22042554 Details on http://radiosondy.info
W4DEX-14D220425542022-12-06 12:43:5935.8721-78.58768313028716Clb=7.3m/s Type=DFM17 ser=[BC]22042554 Details on http://radiosondy.info
W4DEX-14D220425542022-12-06 12:43:5835.8715-78.59347712628615Clb=7.3m/s Type=DFM17 ser=[BC]22042554 Details on http://radiosondy.info
W4DEX-14D220425542022-12-06 12:43:5235.8707-78.59918412228515Clb=7.4m/s Type=DFM17 ser=[BC]22042554 Details on http://radiosondy.info
W4DEX-14D220425542022-12-06 12:43:5035.87-78.60468011528418Clb=7.6m/s Type=DFM17 ser=[BC]22042554 Details on http://radiosondy.info
W4DEX-14D220425542022-12-06 12:43:4935.8693-78.60978010628321Clb=7.8m/s Type=DFM17 ser=[BC]22042554 Details on http://radiosondy.info
W4DEX-14D220425542022-12-06 12:43:4835.869-78.6145839828224Clb=7.4m/s Type=DFM17 ser=[BC]22042554 Details on http://radiosondy.info
W4DEX-14D220425542022-12-06 12:43:4335.8688-78.619819628129Clb=5.8m/s Type=DFM17 ser=[BC]22042554 Details on http://radiosondy.info
W4DEX-14D220425542022-12-06 12:43:3535.8684-78.62337810228035Clb=6.5m/s Type=DFM17 ser=[BC]22042554 Details on http://radiosondy.info
W4DEX-14D220425542022-12-06 12:43:2935.8679-78.6288311327940Clb=7.8m/s Type=DFM17 ser=[BC]22042554 Details on http://radiosondy.info
W4DEX-14D220425542022-12-06 12:43:2135.8672-78.6331719627848Clb=8.6m/s Type=DFM17 ser=[BC]22042554 Details on http://radiosondy.info
W4DEX-14D220425542022-12-06 12:43:0535.8664-78.6373759327754Clb=5.8m/s Type=DFM17 ser=[BC]22042554 Details on http://radiosondy.info
W4DEX-14D220425542022-12-06 12:42:4535.8657-78.6415738527660Clb=6.0m/s Type=DFM17 ser=[BC]22042554 Details on http://radiosondy.info
W4DEX-14D220425542022-12-06 12:42:2035.8653-78.6453848727562Clb=4.3m/s Type=DFM17 ser=[BC]22042554 Details on http://radiosondy.info
W4DEX-14D220425542022-12-06 12:42:0035.8652-78.64938310027464Clb=5.5m/s Type=DFM17 ser=[BC]22042554 Details on http://radiosondy.info
W4DEX-14D220425542022-12-06 12:41:5935.8653-78.6538838727369Clb=5.3m/s Type=DFM17 ser=[BC]22042554 Details on http://radiosondy.info
W4DEX-14D220425542022-12-06 12:41:5635.8652-78.6579859827272Clb=6.3m/s Type=DFM17 ser=[BC]22042554 Details on http://radiosondy.info
W4DEX-14D220425542022-12-06 12:41:5435.865-78.66238310027174Clb=6.9m/s Type=DFM17 ser=[BC]22042554 Details on http://radiosondy.info
W4DEX-14D220425542022-12-06 12:41:5335.8646-78.66697510927077Clb=7.2m/s Type=DFM17 ser=[BC]22042554 Details on http://radiosondy.info
W4DEX-14D220425542022-12-06 12:41:5135.8639-78.67197810426977Clb=6.8m/s Type=DFM17 ser=[BC]22042554 Details on http://radiosondy.info
W4DEX-14D220425542022-12-06 12:41:5035.8632-78.67656910726881Clb=5.8m/s Type=DFM17 ser=[BC]22042554 Details on http://radiosondy.info
W4DEX-14D220425542022-12-06 12:41:4935.8625-78.68148110026786Clb=5.6m/s Type=DFM17 ser=[BC]22042554 Details on http://radiosondy.info
W4DEX-14D220425542022-12-06 12:41:4835.8623-78.6859899626687Clb=5.0m/s Type=DFM17 ser=[BC]22042554 Details on http://radiosondy.info
W4DEX-14D220425542022-12-06 12:41:4735.8622-78.6903839626588Clb=7.6m/s Type=DFM17 ser=[BC]22042554 Details on http://radiosondy.info
W4DEX-14D220425542022-12-06 12:41:4635.862-78.6947879326493Clb=6.8m/s Type=DFM17 ser=[BC]22042554 Details on http://radiosondy.info
W4DEX-14D220425542022-12-06 12:41:4335.8618-78.6989818526399Clb=7.7m/s Type=DFM17 ser=[BC]22042554 Details on http://radiosondy.info
W4DEX-14D220425542022-12-06 12:41:3035.8616-78.7028877826307Clb=6.8m/s Type=DFM17 ser=[BC]22042554 Details on http://radiosondy.info
W4DEX-14D220425542022-12-06 12:41:1335.8618-78.7063937826219Clb=7.0m/s Type=DFM17 ser=[BC]22042554 Details on http://radiosondy.info
W4DEX-14D220425542022-12-06 12:40:5535.8619-78.7098937626137Clb=6.5m/s Type=DFM17 ser=[BC]22042554 Details on http://radiosondy.info
W4DEX-14D220425542022-12-06 12:40:2835.8625-78.7132947426056Clb=5.9m/s Type=DFM17 ser=[BC]22042554 Details on http://radiosondy.info
W4DEX-14D220425542022-12-06 12:39:5635.8629-78.71661016925974Clb=4.7m/s Type=DFM17 ser=[BC]22042554 Details on http://radiosondy.info
W4DEX-14D220425542022-12-06 12:39:2635.863-78.7197946125896Clb=4.2m/s Type=DFM17 ser=[BC]22042554 Details on http://radiosondy.info
W4DEX-14D220425542022-12-06 12:38:5035.8628-78.7225825925812Clb=7.0m/s Type=DFM17 ser=[BC]22042554 Details on http://radiosondy.info
W4DEX-14D220425542022-12-06 12:38:1835.8626-78.7251915625736Clb=5.4m/s Type=DFM17 ser=[BC]22042554 Details on http://radiosondy.info
W4DEX-14D220425542022-12-06 12:37:4235.8626-78.7277885925654Clb=6.0m/s Type=DFM17 ser=[BC]22042554 Details on http://radiosondy.info
W4DEX-14D220425542022-12-06 12:37:0735.8627-78.7304936525573Clb=6.1m/s Type=DFM17 ser=[BC]22042554 Details on http://radiosondy.info
W4DEX-14D220425542022-12-06 12:36:3435.863-78.7333897025491Clb=3.9m/s Type=DFM17 ser=[BC]22042554 Details on http://radiosondy.info
W4DEX-14D220425542022-12-06 12:36:0035.8635-78.73651058025405Clb=5.2m/s Type=DFM17 ser=[BC]22042554 Details on http://radiosondy.info
W4DEX-14D220425542022-12-06 12:35:2535.8642-78.741028325316Clb=4.2m/s Type=DFM17 ser=[BC]22042554 Details on http://radiosondy.info
W4DEX-14D220425542022-12-06 12:34:4235.8649-78.74381028125222Clb=5.8m/s Type=DFM17 ser=[BC]22042554 Details on http://radiosondy.info
W4DEX-14D220425542022-12-06 12:34:0335.8653-78.7475957025120Clb=7.6m/s Type=DFM17 ser=[BC]22042554 Details on http://radiosondy.info
W4DEX-14D220425542022-12-06 12:33:2835.8656-78.75071016925017Clb=6.3m/s Type=DFM17 ser=[BC]22042554 Details on http://radiosondy.info
W4DEX-14D220425542022-12-06 12:32:1835.8542-78.844702221412Clb=6.9m/s Type=DFM17 ser=[BC]22042554 Details on http://radiosondy.info
W4DEX-14D220425542022-12-06 12:31:4035.8538-78.8449592621321Clb=6.7m/s Type=DFM17 ser=[BC]22042554 Details on http://radiosondy.info
W4DEX-14D220425542022-12-06 12:31:0535.8536-78.846863021232Clb=5.7m/s Type=DFM17 ser=[BC]22042554 Details on http://radiosondy.info
W4DEX-14D220425542022-12-06 12:30:2935.8535-78.8474812821150Clb=4.6m/s Type=DFM17 ser=[BC]22042554 Details on http://radiosondy.info
W4DEX-14D220425542022-12-06 12:29:5435.8534-78.8486882221067Clb=6.3m/s Type=DFM17 ser=[BC]22042554 Details on http://radiosondy.info
W4DEX-14D220425542022-12-06 12:29:1835.8531-78.8495402220991Clb=5.0m/s Type=DFM17 ser=[BC]22042554 Details on http://radiosondy.info
W4DEX-14D220425542022-12-06 12:28:4435.8525-78.85391520920Clb=4.9m/s Type=DFM17 ser=[BC]22042554 Details on http://radiosondy.info
W4DEX-14D220425542022-12-06 12:28:1035.8521-78.8506681720847Clb=3.4m/s Type=DFM17 ser=[BC]22042554 Details on http://radiosondy.info
W4DEX-14D220425542022-12-06 12:27:3735.8519-78.8512811520779Clb=4.0m/s Type=DFM17 ser=[BC]22042554 Details on http://radiosondy.info
W4DEX-14D220425542022-12-06 12:27:0535.8519-78.8518942020711Clb=5.9m/s Type=DFM17 ser=[BC]22042554 Details on http://radiosondy.info
W4DEX-14D220425542022-12-06 12:26:3535.8518-78.85281152020644Clb=5.4m/s Type=DFM17 ser=[BC]22042554 Details on http://radiosondy.info
W4DEX-14D220425542022-12-06 12:26:1235.852-78.8536972220575Clb=3.7m/s Type=DFM17 ser=[BC]22042554 Details on http://radiosondy.info
W4DEX-14D220425542022-12-06 12:25:3035.8523-78.85461073120509Clb=4.9m/s Type=DFM17 ser=[BC]22042554 Details on http://radiosondy.info
W4DEX-14D220425542022-12-06 12:24:4935.8528-78.85591164120445Clb=4.4m/s Type=DFM17 ser=[BC]22042554 Details on http://radiosondy.info
W4DEX-14D220425542022-12-06 12:24:1535.853-78.8578885020381Clb=3.2m/s Type=DFM17 ser=[BC]22042554 Details on http://radiosondy.info
W4DEX-14D220425542022-12-06 12:23:4035.8532-78.86011005220318Clb=3.2m/s Type=DFM17 ser=[BC]22042554 Details on http://radiosondy.info
W4DEX-14D220425542022-12-06 12:23:0635.8533-78.8625855020252Clb=3.8m/s Type=DFM17 ser=[BC]22042554 Details on http://radiosondy.info
W4DEX-14D220425542022-12-06 12:22:2835.8533-78.8647964120184Clb=4.5m/s Type=DFM17 ser=[BC]22042554 Details on http://radiosondy.info
W4DEX-14D220425542022-12-06 12:21:5135.8534-78.86661073720111Clb=4.8m/s Type=DFM17 ser=[BC]22042554 Details on http://radiosondy.info
W4DEX-14D220425542022-12-06 12:21:1535.8534-78.8683854120040Clb=4.6m/s Type=DFM17 ser=[BC]22042554 Details on http://radiosondy.info
W4DEX-14D220425542022-12-06 12:20:3535.8531-78.8702734319966Clb=4.6m/s Type=DFM17 ser=[BC]22042554 Details on http://radiosondy.info
W4DEX-14D220425542022-12-06 12:19:3435.8528-78.8721704419889Clb=6.2m/s Type=DFM17 ser=[BC]22042554 Details on http://radiosondy.info
W4DEX-14D220425542022-12-06 12:18:4835.8526-78.8741914819804Clb=6.1m/s Type=DFM17 ser=[BC]22042554 Details on http://radiosondy.info
W4DEX-14D220425542022-12-06 12:18:0935.8528-78.87631004419721Clb=5.8m/s Type=DFM17 ser=[BC]22042554 Details on http://radiosondy.info
W4DEX-14D220425542022-12-06 12:17:3735.8531-78.87831034119638Clb=4.9m/s Type=DFM17 ser=[BC]22042554 Details on http://radiosondy.info
W4DEX-14D220425542022-12-06 12:17:0435.8532-78.8801953719556Clb=5.1m/s Type=DFM17 ser=[BC]22042554 Details on http://radiosondy.info
W4DEX-14D220425542022-12-06 12:16:3235.8535-78.88181093119471Clb=5.1m/s Type=DFM17 ser=[BC]22042554 Details on http://radiosondy.info
W4DEX-14D220425542022-12-06 12:16:0035.8538-78.88321092819390Clb=6.1m/s Type=DFM17 ser=[BC]22042554 Details on http://radiosondy.info
W4DEX-14D220425542022-12-06 12:15:5935.8542-78.88431443119308Clb=4.2m/s Type=DFM17 ser=[BC]22042554 Details on http://radiosondy.info
W4DEX-14D220425542022-12-06 12:15:5835.855-78.88541263719232Clb=4.9m/s Type=DFM17 ser=[BC]22042554 Details on http://radiosondy.info
W4DEX-14D220425542022-12-06 12:15:5635.8558-78.88671354119154Clb=5.7m/s Type=DFM17 ser=[BC]22042554 Details on http://radiosondy.info
W4DEX-14D220425542022-12-06 12:15:5435.8569-78.8881344419075Clb=5.6m/s Type=DFM17 ser=[BC]22042554 Details on http://radiosondy.info
W4DEX-14D220425542022-12-06 12:15:5335.8581-78.88951325419002Clb=4.6m/s Type=DFM17 ser=[BC]22042554 Details on http://radiosondy.info
W4DEX-14D220425542022-12-06 12:15:5135.8593-78.89151245218929Clb=3.6m/s Type=DFM17 ser=[BC]22042554 Details on http://radiosondy.info
W4DEX-14D220425542022-12-06 12:15:4935.8603-78.89351235418856Clb=4.0m/s Type=DFM17 ser=[BC]22042554 Details on http://radiosondy.info
W4DEX-14D220425542022-12-06 12:15:4835.8611-78.89571016718784Clb=5.6m/s Type=DFM17 ser=[BC]22042554 Details on http://radiosondy.info
W4DEX-14D220425542022-12-06 12:15:4635.8619-78.89871148918711Clb=4.1m/s Type=DFM17 ser=[BC]22042554 Details on http://radiosondy.info
W4DEX-14D220425542022-12-06 12:15:4535.8633-78.90241139118642Clb=3.8m/s Type=DFM17 ser=[BC]22042554 Details on http://radiosondy.info
W4DEX-14D220425542022-12-06 12:15:3435.8645-78.90641049418574Clb=4.5m/s Type=DFM17 ser=[BC]22042554 Details on http://radiosondy.info
W4DEX-14D220425542022-12-06 12:15:2435.8656-78.910510510018505Clb=4.2m/s Type=DFM17 ser=[BC]22042554 Details on http://radiosondy.info
W4DEX-14D220425542022-12-06 12:15:0935.8666-78.9151039818433Clb=4.4m/s Type=DFM17 ser=[BC]22042554 Details on http://radiosondy.info
W4DEX-14D220425542022-12-06 12:14:5435.8674-78.91931018118360Clb=5.7m/s Type=DFM17 ser=[BC]22042554 Details on http://radiosondy.info
W4DEX-14D220425542022-12-06 12:14:2235.8681-78.9231057818286Clb=5.0m/s Type=DFM17 ser=[BC]22042554 Details on http://radiosondy.info
W4DEX-14D220425542022-12-06 12:13:5135.8689-78.92631078018213Clb=5.4m/s Type=DFM17 ser=[BC]22042554 Details on http://radiosondy.info
W4DEX-14D220425542022-12-06 12:13:2235.8699-78.92981128518138Clb=4.9m/s Type=DFM17 ser=[BC]22042554 Details on http://radiosondy.info
W4DEX-14D220425542022-12-06 12:12:4335.871-78.93351119118065Clb=4.5m/s Type=DFM17 ser=[BC]22042554 Details on http://radiosondy.info
W4DEX-14D220425542022-12-06 12:12:0935.8719-78.93751039417992Clb=4.4m/s Type=DFM17 ser=[BC]22042554 Details on http://radiosondy.info
W4DEX-14D220425542022-12-06 12:11:3535.8729-78.94181049817922Clb=4.4m/s Type=DFM17 ser=[BC]22042554 Details on http://radiosondy.info
W4DEX-14D220425542022-12-06 12:11:0035.8734-78.94629410417856Clb=5.2m/s Type=DFM17 ser=[BC]22042554 Details on http://radiosondy.info
W4DEX-14D220425542022-12-06 12:10:2335.9091-79.13112210714777Clb=4.2m/s Type=DFM17 ser=[BC]22042554 Details on http://radiosondy.info
W4DEX-14D220425542022-12-06 12:09:3835.9112-79.135312011514712Clb=4.0m/s Type=DFM17 ser=[BC]22042554 Details on http://radiosondy.info
W4DEX-14D220425542022-12-06 12:08:5835.9134-79.139812112614651Clb=3.7m/s Type=DFM17 ser=[BC]22042554 Details on http://radiosondy.info
W4DEX-14D220425542022-12-06 12:08:2235.9158-79.144912113114584Clb=4.5m/s Type=DFM17 ser=[BC]22042554 Details on http://radiosondy.info
W4DEX-14D220425542022-12-06 12:07:4135.9183-79.150112113514517Clb=3.7m/s Type=DFM17 ser=[BC]22042554 Details on http://radiosondy.info
W4DEX-14D220425542022-12-06 12:07:0535.921-79.155312214614447Clb=5.4m/s Type=DFM17 ser=[BC]22042554 Details on http://radiosondy.info
W4DEX-14D220425542022-12-06 12:06:3335.9239-79.16111914414377Clb=4.0m/s Type=DFM17 ser=[BC]22042554 Details on http://radiosondy.info
W4DEX-14D220425542022-12-06 12:05:5835.9265-79.166911914614306Clb=4.6m/s Type=DFM17 ser=[BC]22042554 Details on http://radiosondy.info
W4KZK-14D220425542022-12-06 12:05:4735.9275-79.169411714314282Clb=4.2m/s t=-64.9C h=-1.0% p=-1.0hPa 403.400 MHz Type=DFM17 ser=22042554 Radiosonde
W4DEX-14D220425542022-12-06 12:05:2235.9289-79.17311614314235Clb=4.7m/s Type=DFM17 ser=[BC]22042554 Details on http://radiosondy.info
W4DEX-14D220425542022-12-06 12:04:4435.9312-79.178911614114162Clb=4.3m/s Type=DFM17 ser=[BC]22042554 Details on http://radiosondy.info
W4KZK-14D220425542022-12-06 12:04:2235.9325-79.182411614314124Clb=4.7m/s t=-65.2C h=-1.0% p=-1.0hPa 403.400 MHz Type=DFM17 ser=22042554 Radiosonde
W4DEX-14D220425542022-12-06 12:04:0535.9335-79.184811714614089Clb=5.8m/s Type=DFM17 ser=[BC]22042554 Details on http://radiosondy.info
W4DEX-14D220425542022-12-06 12:03:2935.9361-79.190711915014015Clb=4.7m/s Type=DFM17 ser=[BC]22042554 Details on http://radiosondy.info
W4DEX-14D220425542022-12-06 12:02:5535.9388-79.196712015713940Clb=5.1m/s Type=DFM17 ser=[BC]22042554 Details on http://radiosondy.info
W4DEX-14D220425542022-12-06 12:02:2335.9418-79.20311916113867Clb=5.0m/s Type=DFM17 ser=[BC]22042554 Details on http://radiosondy.info
W4DEX-14D220425542022-12-06 12:01:5035.9447-79.209511916313799Clb=4.1m/s Type=DFM17 ser=[BC]22042554 Details on http://radiosondy.info
W4DEX-14D220425542022-12-06 12:01:1835.9475-79.216211315913731Clb=4.0m/s Type=DFM17 ser=[BC]22042554 Details on http://radiosondy.info
W4DEX-14D220425542022-12-06 12:00:4835.95-79.222811415913665Clb=3.9m/s Type=DFM17 ser=[BC]22042554 Details on http://radiosondy.info
W4DEX-14D220425542022-12-06 12:00:1335.9525-79.229511415913599Clb=3.4m/s Type=DFM17 ser=[BC]22042554 Details on http://radiosondy.info
W4DEX-14D220425542022-12-06 11:59:2935.955-79.236111416113536Clb=4.1m/s Type=DFM17 ser=[BC]22042554 Details on http://radiosondy.info
W4KZK-14D220425542022-12-06 11:59:1735.9561-79.238811415213515Clb=3.6m/s t=-63.8C h=-1.0% p=-1.0hPa 403.400 MHz Type=DFM17 ser=22042554 Radiosonde
W4DEX-14D220425542022-12-06 11:58:5035.9576-79.242911615913477Clb=3.6m/s Type=DFM17 ser=[BC]22042554 Details on http://radiosondy.info
W4DEX-14D220425542022-12-06 11:58:1135.9601-79.249511516913417Clb=4.4m/s Type=DFM17 ser=[BC]22042554 Details on http://radiosondy.info
W4KZK-14D220425542022-12-06 11:57:4635.9619-79.254711316713379Clb=4.3m/s t=-64.1C h=-1.0% p=-1.0hPa 403.400 MHz Type=DFM17 ser=22042554 Radiosonde
W4DEX-14D220425542022-12-06 11:57:3035.9626-79.256711317413358Clb=4.4m/s Type=DFM17 ser=[BC]22042554 Details on http://radiosondy.info
W4DEX-14D220425542022-12-06 11:56:5935.9651-79.264111318013301Clb=3.4m/s Type=DFM17 ser=[BC]22042554 Details on http://radiosondy.info
W4KZK-14D220425542022-12-06 11:56:3335.967-79.270311118313258Clb=3.7m/s t=-63.9C h=-1.0% p=-1.0hPa 403.400 MHz Type=DFM17 ser=22042554 Radiosonde
W4DEX-14D220425542022-12-06 11:56:2635.9675-79.271911118013243Clb=3.5m/s Type=DFM17 ser=[BC]22042554 Details on http://radiosondy.info
W4DEX-14D220425542022-12-06 11:55:5735.9698-79.279710817813184Clb=3.9m/s Type=DFM17 ser=[BC]22042554 Details on http://radiosondy.info
W4KZK-14D220425542022-12-06 11:55:2435.9719-79.28810717213123Clb=4.8m/s t=-63.0C h=-1.0% p=-1.0hPa 403.400 MHz Type=DFM17 ser=22042554 Radiosonde
W4DEX-14D220425542022-12-06 11:55:2335.9718-79.287510817413123Clb=4.7m/s Type=DFM17 ser=[BC]22042554 Details on http://radiosondy.info
W4DEX-14D220425542022-12-06 11:54:4835.9737-79.295110717013062Clb=4.0m/s Type=DFM17 ser=[BC]22042554 Details on http://radiosondy.info
W4DEX-14D220425542022-12-06 11:54:1035.9755-79.302710716513001Clb=4.6m/s Type=DFM17 ser=[BC]22042554 Details on http://radiosondy.info
W4KZK-14D220425542022-12-06 11:54:0635.976-79.304610716712987Clb=5.0m/s t=-62.2C h=-1.0% p=-1.0hPa 403.400 MHz Type=DFM17 ser=22042554 Radiosonde
W4DEX-14D220425542022-12-06 11:53:3635.9773-79.309911016312934Clb=5.1m/s Type=DFM17 ser=[BC]22042554 Details on http://radiosondy.info
W4DEX-14D220425542022-12-06 11:52:5535.9792-79.31711015712864Clb=4.9m/s Type=DFM17 ser=[BC]22042554 Details on http://radiosondy.info
W4KZK-14D220425542022-12-06 11:52:4335.9801-79.319811215012840Clb=4.5m/s t=-61.3C h=-1.0% p=-1.0hPa 403.400 MHz Type=DFM17 ser=22042554 Radiosonde
W4DEX-14D220425542022-12-06 11:52:1835.9812-79.323811215012792Clb=5.3m/s Type=DFM17 ser=[BC]22042554 Details on http://radiosondy.info
W4DEX-14D220425542022-12-06 11:51:5235.9831-79.330311214412728Clb=4.8m/s Type=DFM17 ser=[BC]22042554 Details on http://radiosondy.info
W4DEX-14D220425542022-12-06 11:51:4535.985-79.336611114612660Clb=4.9m/s Type=DFM17 ser=[BC]22042554 Details on http://radiosondy.info
W4DEX-14D220425542022-12-06 11:51:3035.9871-79.342811414312596Clb=4.0m/s Type=DFM17 ser=[BC]22042554 Details on http://radiosondy.info
W4KZK-14D220425542022-12-06 11:51:1435.989-79.348111114312545Clb=4.4m/s t=-61.1C h=-1.0% p=-1.0hPa 403.400 MHz Type=DFM17 ser=22042554 Radiosonde
W4DEX-14D220425542022-12-06 11:51:0735.9893-79.348911313912532Clb=4.5m/s Type=DFM17 ser=[BC]22042554 Details on http://radiosondy.info
W4DEX-14D220425542022-12-06 11:50:5235.9913-79.354811614612469Clb=4.7m/s Type=DFM17 ser=[BC]22042554 Details on http://radiosondy.info
W4KZK-14D220425542022-12-06 11:50:4735.9939-79.361311615012410Clb=3.7m/s t=-61.4C h=-1.0% p=-1.0hPa 403.400 MHz Type=DFM17 ser=22042554 Radiosonde
W4DEX-14D220425542022-12-06 11:50:3135.9961-79.367111514412346Clb=4.8m/s Type=DFM17 ser=[BC]22042554 Details on http://radiosondy.info
W4DEX-14D220425542022-12-06 11:50:1235.9983-79.373311514112283Clb=3.7m/s Type=DFM17 ser=[BC]22042554 Details on http://radiosondy.info
W4KZK-14D220425542022-12-06 11:50:1035.9993-79.376111413912255Clb=4.5m/s t=-61.2C h=-1.0% p=-1.0hPa 403.400 MHz Type=DFM17 ser=22042554 Radiosonde
W4DEX-14D220425542022-12-06 11:50:0136.0004-79.379211413912217Clb=5.4m/s Type=DFM17 ser=[BC]22042554 Details on http://radiosondy.info
W4DEX-14D220425542022-12-06 11:49:5836.0027-79.38511714312158Clb=4.1m/s Type=DFM17 ser=[BC]22042554 Details on http://radiosondy.info
W4KZK-14D220425542022-12-06 11:49:5636.0039-79.387811414412133Clb=5.0m/s t=-60.3C h=-1.0% p=-1.0hPa 403.400 MHz Type=DFM17 ser=22042554 Radiosonde
W4DEX-14D220425542022-12-06 11:49:5436.0052-79.390811914612098Clb=4.7m/s Type=DFM17 ser=[BC]22042554 Details on http://radiosondy.info
W4DEX-14D220425542022-12-06 11:49:4936.0077-79.396811914412034Clb=4.4m/s Type=DFM17 ser=[BC]22042554 Details on http://radiosondy.info
W4KZK-14D220425542022-12-06 11:49:4636.0094-79.400711914111995Clb=4.1m/s t=-59.8C h=-1.0% p=-1.0hPa 403.400 MHz Type=DFM17 ser=22042554 Radiosonde
W4DEX-14D220425542022-12-06 11:49:4436.0103-79.402712113911970Clb=5.2m/s Type=DFM17 ser=[BC]22042554 Details on http://radiosondy.info
W4DEX-14D220425542022-12-06 11:49:2836.0129-79.408212113111906Clb=5.0m/s Type=DFM17 ser=[BC]22042554 Details on http://radiosondy.info
W4KZK-14D220425542022-12-06 11:49:1636.015-79.412712012811854Clb=4.6m/s t=-59.7C h=-1.0% p=-1.0hPa 403.400 MHz Type=DFM17 ser=22042554 Radiosonde
W4DEX-14D220425542022-12-06 11:49:1236.0153-79.413412112811842Clb=4.5m/s Type=DFM17 ser=[BC]22042554 Details on http://radiosondy.info
W4DEX-14D220425542022-12-06 11:48:5936.0177-79.418512013011777Clb=4.1m/s Type=DFM17 ser=[BC]22042554 Details on http://radiosondy.info
W4KZK-14D220425542022-12-06 11:48:5136.0201-79.424111812011713Clb=4.1m/s t=-59.2C h=-1.0% p=-1.0hPa 403.400 MHz Type=DFM17 ser=22042554 Radiosonde
W4DEX-14D220425542022-12-06 11:48:5036.0221-79.42911913111647Clb=4.3m/s Type=DFM17 ser=[BC]22042554 Details on http://radiosondy.info
W4DEX-14D220425542022-12-06 11:48:4936.0246-79.434212413111582Clb=3.1m/s Type=DFM17 ser=[BC]22042554 Details on http://radiosondy.info
W4DEX-14D220425542022-12-06 11:48:4836.0271-79.439412113111520Clb=4.8m/s Type=DFM17 ser=[BC]22042554 Details on http://radiosondy.info
W4DEX-14D220425542022-12-06 11:48:4736.0296-79.444712013111454Clb=4.2m/s Type=DFM17 ser=[BC]22042554 Details on http://radiosondy.info
W4KZK-14D220425542022-12-06 11:48:4536.0308-79.447112112811427Clb=4.1m/s t=-57.2C h=-1.0% p=-1.0hPa 403.400 MHz Type=DFM17 ser=22042554 Radiosonde
W4DEX-14D220425542022-12-06 11:48:4436.0344-79.455211912811320Clb=3.4m/s Type=DFM17 ser=[BC]22042554 Details on http://radiosondy.info
W4KZK-14D220425542022-12-06 11:48:4336.0359-79.458711513011280Clb=4.9m/s t=-56.0C h=-1.0% p=-1.0hPa 403.400 MHz Type=DFM17 ser=22042554 Radiosonde
W4DEX-14D220425542022-12-06 11:48:4236.0387-79.465611912211187Clb=4.5m/s Type=DFM17 ser=[BC]22042554 Details on http://radiosondy.info
W4KZK-14D220425542022-12-06 11:48:4136.0405-79.4711711711133Clb=4.6m/s t=-54.8C h=-1.0% p=-1.0hPa 403.400 MHz Type=DFM17 ser=22042554 Radiosonde
W4DEX-14D220425542022-12-06 11:48:4036.0408-79.470611512011120Clb=4.3m/s Type=DFM17 ser=[BC]22042554 Details on http://radiosondy.info
W4DEX-14D220425542022-12-06 11:48:3936.0446-79.480812012010989Clb=3.7m/s Type=DFM17 ser=[BC]22042554 Details on http://radiosondy.info
W4DEX-14D220425542022-12-06 11:48:3736.0465-79.485811611710921Clb=4.7m/s Type=DFM17 ser=[BC]22042554 Details on http://radiosondy.info
W4DEX-14D220425542022-12-06 11:48:3636.0482-79.490811811710854Clb=4.1m/s Type=DFM17 ser=[BC]22042554 Details on http://radiosondy.info
W4DEX-14D220425542022-12-06 11:48:3136.05-79.495711511910792Clb=4.5m/s Type=DFM17 ser=[BC]22042554 Details on http://radiosondy.info
W4DEX-14D220425542022-12-06 11:48:0736.0518-79.500711411710725Clb=3.6m/s Type=DFM17 ser=[BC]22042554 Details on http://radiosondy.info
W4KZK-14D220425542022-12-06 11:47:5536.0527-79.503311210910695Clb=3.5m/s t=-51.5C h=-1.0% p=-1.0hPa 403.400 MHz Type=DFM17 ser=22042554 Radiosonde
W4DEX-14D220425542022-12-06 11:47:3536.0535-79.505611311710659Clb=4.1m/s Type=DFM17 ser=[BC]22042554 Details on http://radiosondy.info
W4DEX-14D220425542022-12-06 11:47:0336.0553-79.510511411310592Clb=3.7m/s Type=DFM17 ser=[BC]22042554 Details on http://radiosondy.info
W4KZK-14D220425542022-12-06 11:46:4336.0565-79.51411410910549Clb=3.5m/s t=-50.4C h=-1.0% p=-1.0hPa 403.400 MHz Type=DFM17 ser=22042554 Radiosonde
W4DEX-14D220425542022-12-06 11:46:3436.057-79.515311611310527Clb=4.7m/s Type=DFM17 ser=[BC]22042554 Details on http://radiosondy.info
W4DEX-14D220425542022-12-06 11:46:0636.0588-79.5211610910463Clb=5.2m/s Type=DFM17 ser=[BC]22042554 Details on http://radiosondy.info
W4KZK-14D220425542022-12-06 11:45:4236.0604-79.524311410410403Clb=3.9m/s t=-49.3C h=-1.0% p=-1.0hPa 403.400 MHz Type=DFM17 ser=22042554 Radiosonde
W4DEX-14D220425542022-12-06 11:45:3736.0605-79.524611611110395Clb=3.9m/s Type=DFM17 ser=[BC]22042554 Details on http://radiosondy.info
W4DEX-14D220425542022-12-06 11:45:0836.0622-79.529311310910334Clb=3.4m/s Type=DFM17 ser=[BC]22042554 Details on http://radiosondy.info
W4DEX-14D220425542022-12-06 11:44:3836.0639-79.533911510710267Clb=4.5m/s Type=DFM17 ser=[BC]22042554 Details on http://radiosondy.info
W4KZK-14D220425542022-12-06 11:44:3736.0641-79.534511510710263Clb=4.3m/s t=-48.2C h=-1.0% p=-1.0hPa 403.400 MHz Type=DFM17 ser=22042554 Radiosonde
W4DEX-14D220425542022-12-06 11:44:0636.0656-79.538411610610205Clb=3.8m/s Type=DFM17 ser=[BC]22042554 Details on http://radiosondy.info
W4DEX-14D220425542022-12-06 11:43:3936.0672-79.542911410910144Clb=3.6m/s Type=DFM17 ser=[BC]22042554 Details on http://radiosondy.info
W4KZK-14D220425542022-12-06 11:43:3136.0677-79.544411510910126Clb=4.8m/s t=-47.1C h=-1.0% p=-1.0hPa 403.400 MHz Type=DFM17 ser=22042554 Radiosonde
W4DEX-14D220425542022-12-06 11:43:1036.0688-79.547511411110083Clb=4.2m/s Type=DFM17 ser=[BC]22042554 Details on http://radiosondy.info
W4DEX-14D220425542022-12-06 11:42:3636.0703-79.552211011110017Clb=4.3m/s Type=DFM17 ser=[BC]22042554 Details on http://radiosondy.info
W4KZK-14D220425542022-12-06 11:42:2036.0712-79.55481131099988Clb=3.9m/s t=-46.0C h=-1.0% p=-1.0hPa 403.400 MHz Type=DFM17 ser=22042554 Radiosonde
W4DEX-14D220425542022-12-06 11:42:0336.0719-79.5571131119953Clb=4.2m/s Type=DFM17 ser=[BC]22042554 Details on http://radiosondy.info
W4DEX-14D220425542022-12-06 11:41:3536.0734-79.56181121159889Clb=4.1m/s Type=DFM17 ser=[BC]22042554 Details on http://radiosondy.info
W4KZK-14D220425542022-12-06 11:41:1736.0745-79.56541101199839Clb=4.8m/s t=-44.8C h=-1.0% p=-1.0hPa 403.400 MHz Type=DFM17 ser=22042554 Radiosonde
W4DEX-14D220425542022-12-06 11:41:0636.0749-79.56671131119815Clb=5.5m/s Type=DFM17 ser=[BC]22042554 Details on http://radiosondy.info
W4DEX-14D220425542022-12-06 11:40:3836.0763-79.57161071119751Clb=3.7m/s Type=DFM17 ser=[BC]22042554 Details on http://radiosondy.info
W4KZK-14D220425542022-12-06 11:40:1736.0776-79.57641061139683Clb=4.5m/s t=-43.4C h=-1.0% p=-1.0hPa 403.400 MHz Type=DFM17 ser=22042554 Radiosonde
W4DEX-14D220425542022-12-06 11:40:1236.0776-79.57641071099679Clb=4.8m/s Type=DFM17 ser=[BC]22042554 Details on http://radiosondy.info
W4DEX-14D220425542022-12-06 11:39:5236.0789-79.58121091099613Clb=3.2m/s Type=DFM17 ser=[BC]22042554 Details on http://radiosondy.info
W4DEX-14D220425542022-12-06 11:39:3936.0801-79.5861071079548Clb=4.5m/s Type=DFM17 ser=[BC]22042554 Details on http://radiosondy.info
W4DEX-14D220425542022-12-06 11:39:2336.0813-79.59081041099483Clb=5.7m/s Type=DFM17 ser=[BC]22042554 Details on http://radiosondy.info
W4DEX-14D220425542022-12-06 11:39:0736.0824-79.59561031099416Clb=4.0m/s Type=DFM17 ser=[BC]22042554 Details on http://radiosondy.info
W4KZK-14D220425542022-12-06 11:39:0336.0828-79.59731081069398Clb=4.6m/s t=-41.0C h=-1.0% p=-1.0hPa 403.400 MHz Type=DFM17 ser=22042554 Radiosonde
W4DEX-14D220425542022-12-06 11:38:5236.0835-79.60051101099350Clb=4.2m/s Type=DFM17 ser=[BC]22042554 Details on http://radiosondy.info
W4DEX-14D220425542022-12-06 11:38:3836.0847-79.60531091049282Clb=5.2m/s Type=DFM17 ser=[BC]22042554 Details on http://radiosondy.info
W4KZK-14D220425542022-12-06 11:38:3036.0854-79.6081051069248Clb=3.5m/s t=-40.0C h=-1.0% p=-1.0hPa 403.400 MHz Type=DFM17 ser=22042554 Radiosonde
W4DEX-14D220425542022-12-06 11:38:2236.0858-79.60991101049216Clb=4.3m/s Type=DFM17 ser=[BC]22042554 Details on http://radiosondy.info
W4DEX-14D220425542022-12-06 11:38:0736.087-79.61451061029152Clb=3.7m/s Type=DFM17 ser=[BC]22042554 Details on http://radiosondy.info
W4KZK-14D220425542022-12-06 11:37:5736.0878-79.61781071009105Clb=4.7m/s t=-38.8C h=-1.0% p=-1.0hPa 403.400 MHz Type=DFM17 ser=22042554 Radiosonde
W4DEX-14D220425542022-12-06 11:37:5236.0881-79.6191061069079Clb=4.7m/s Type=DFM17 ser=[BC]22042554 Details on http://radiosondy.info
W4DEX-14D220425542022-12-06 11:37:4136.089-79.62371041049010Clb=4.6m/s Type=DFM17 ser=[BC]22042554 Details on http://radiosondy.info
W4KZK-14D220425542022-12-06 11:37:2636.09-79.62841021068949Clb=4.9m/s t=-37.6C h=-1.0% p=-1.0hPa 403.400 MHz Type=DFM17 ser=22042554 Radiosonde
W4DEX-14D220425542022-12-06 11:37:2436.09-79.62841031078945Clb=3.8m/s Type=DFM17 ser=[BC]22042554 Details on http://radiosondy.info
W4DEX-14D220425542022-12-06 11:37:0736.091-79.63321051028879Clb=4.2m/s Type=DFM17 ser=[BC]22042554 Details on http://radiosondy.info
W4DEX-14D220425542022-12-06 11:36:5236.092-79.63761111048814Clb=4.3m/s Type=DFM17 ser=[BC]22042554 Details on http://radiosondy.info
W4KZK-14D220425542022-12-06 11:36:5136.0923-79.63851071048805Clb=4.5m/s t=-36.6C h=-1.0% p=-1.0hPa 403.400 MHz Type=DFM17 ser=22042554 Radiosonde
W4DEX-14D220425542022-12-06 11:36:3736.0933-79.6422105938743Clb=5.3m/s Type=DFM17 ser=[BC]22042554 Details on http://radiosondy.info
W4DEX-14D220425542022-12-06 11:36:2936.0943-79.6463108938676Clb=3.9m/s Type=DFM17 ser=[BC]22042554 Details on http://radiosondy.info
W4DEX-14D220425542022-12-06 11:36:2836.0954-79.6502105858598Clb=4.6m/s Type=DFM17 ser=[BC]22042554 Details on http://radiosondy.info
W4DEX-14D220425542022-12-06 11:36:2736.0965-79.654110858536Clb=4.1m/s Type=DFM17 ser=[BC]22042554 Details on http://radiosondy.info
W4DEX-14D220425542022-12-06 11:36:2636.0974-79.6577102858468Clb=4.0m/s Type=DFM17 ser=[BC]22042554 Details on http://radiosondy.info
W4DEX-14D220425542022-12-06 11:36:2536.0981-79.6615106838404Clb=3.7m/s Type=DFM17 ser=[BC]22042554 Details on http://radiosondy.info
W4KZK-14D220425542022-12-06 11:36:2436.0986-79.6645103898353Clb=6.6m/s t=-33.7C h=-1.0% p=-1.0hPa 403.400 MHz Type=DFM17 ser=22042554 Radiosonde
W4DEX-14D220425542022-12-06 11:36:2236.0994-79.6693103918260Clb=4.6m/s Type=DFM17 ser=[BC]22042554 Details on http://radiosondy.info
W4KZK-14D220425542022-12-06 11:36:1936.1001-79.6734103898195Clb=4.9m/s t=-32.2C h=-1.0% p=-1.0hPa 403.400 MHz Type=DFM17 ser=22042554 Radiosonde
W4DEX-14D220425542022-12-06 11:36:1236.1008-79.6774104918124Clb=4.3m/s Type=DFM17 ser=[BC]22042554 Details on http://radiosondy.info
W4DEX-14D220425542022-12-06 11:35:5236.1014-79.6816102938062Clb=4.0m/s Type=DFM17 ser=[BC]22042554 Details on http://radiosondy.info
W4KZK-14D220425542022-12-06 11:35:4936.1015-79.6824100938053Clb=4.7m/s t=-30.9C h=-1.0% p=-1.0hPa 403.400 MHz Type=DFM17 ser=22042554 Radiosonde
W4DEX-14D220425542022-12-06 11:35:2636.102-79.685897937997Clb=3.3m/s Type=DFM17 ser=[BC]22042554 Details on http://radiosondy.info
W4DEX-14D220425542022-12-06 11:35:0036.1027-79.6899104937938Clb=3.4m/s Type=DFM17 ser=[BC]22042554 Details on http://radiosondy.info
W4KZK-14D220425542022-12-06 11:34:5136.103-79.691699877920Clb=3.0m/s t=-29.6C h=-1.0% p=-1.0hPa 403.400 MHz Type=DFM17 ser=22042554 Radiosonde
W4DEX-14D220425542022-12-06 11:34:3236.1033-79.6942101937881Clb=3.4m/s Type=DFM17 ser=[BC]22042554 Details on http://radiosondy.info
W4DEX-14D220425542022-12-06 11:34:0336.1041-79.698398917822Clb=4.0m/s Type=DFM17 ser=[BC]22042554 Details on http://radiosondy.info
W4DEX-14D220425542022-12-06 11:33:3536.1048-79.7025102937765Clb=3.9m/s Type=DFM17 ser=[BC]22042554 Details on http://radiosondy.info
W4DEX-14D220425542022-12-06 11:33:0836.1055-79.7066104897703Clb=4.4m/s Type=DFM17 ser=[BC]22042554 Details on http://radiosondy.info
W4KZK-14D220425542022-12-06 11:32:4836.1061-79.710197857654Clb=4.5m/s t=-27.2C h=-1.0% p=-1.0hPa 403.400 MHz Type=DFM17 ser=22042554 Radiosonde
W4DEX-14D220425542022-12-06 11:32:3936.1061-79.710797917642Clb=4.4m/s Type=DFM17 ser=[BC]22042554 Details on http://radiosondy.info
W4DEX-14D220425542022-12-06 11:32:1136.1067-79.7148101877584Clb=5.0m/s Type=DFM17 ser=[BC]22042554 Details on http://radiosondy.info
W4KZK-14D220425542022-12-06 11:31:5336.1073-79.718798857527Clb=3.6m/s t=-53.7C h=-1.0% p=-1.0hPa 403.400 MHz Type=DFM17 ser=22042554 Radiosonde
W4DEX-14D220425542022-12-06 11:31:5236.1073-79.718798937524Clb=3.3m/s Type=DFM17 ser=[BC]22042554 Details on http://radiosondy.info
W4DEX-14D220425542022-12-06 11:31:3736.108-79.7229102877459Clb=3.2m/s Type=DFM17 ser=[BC]22042554 Details on http://radiosondy.info
W4DEX-14D220425542022-12-06 11:31:2236.1086-79.7269105877387Clb=4.7m/s Type=DFM17 ser=[BC]22042554 Details on http://radiosondy.info
W4KZK-14D220425542022-12-06 11:31:2036.1096-79.7331105857294Clb=2.5m/s t=-24.1C h=-1.0% p=-1.0hPa 403.400 MHz Type=DFM17 ser=22042554 Radiosonde
W4DEX-14D220425542022-12-06 11:31:1336.1099-79.734795877268Clb=3.5m/s Type=DFM17 ser=[BC]22042554 Details on http://radiosondy.info
W4DEX-14D220425542022-12-06 11:31:1236.1105-79.738798897213Clb=3.4m/s Type=DFM17 ser=[BC]22042554 Details on http://radiosondy.info
W4DEX-14D220425542022-12-06 11:31:1136.1111-79.742792897153Clb=2.4m/s Type=DFM17 ser=[BC]22042554 Details on http://radiosondy.info
W4DEX-14D220425542022-12-06 11:31:1036.1116-79.746798877091Clb=2.4m/s Type=DFM17 ser=[BC]22042554 Details on http://radiosondy.info
W4DEX-14D220425542022-12-06 11:31:0036.1121-79.7507104837035Clb=4.9m/s Type=DFM17 ser=[BC]22042554 Details on http://radiosondy.info
W4KZK-14D220425542022-12-06 11:30:4436.1125-79.7538100816989Clb=4.0m/s t=-21.8C h=-1.0% p=-1.0hPa 403.400 MHz Type=DFM17 ser=22042554 Radiosonde
W4DEX-14D220425542022-12-06 11:30:3736.1126-79.754596856974Clb=3.2m/s Type=DFM17 ser=[BC]22042554 Details on http://radiosondy.info
W4DEX-14D220425542022-12-06 11:30:1536.113-79.7584102876912Clb=4.9m/s Type=DFM17 ser=[BC]22042554 Details on http://radiosondy.info
W4DEX-14D220425542022-12-06 11:29:4936.1139-79.7623106896849Clb=3.2m/s Type=DFM17 ser=[BC]22042554 Details on http://radiosondy.info
W4DEX-14D220425542022-12-06 11:29:2736.1148-79.7662104946793Clb=4.2m/s Type=DFM17 ser=[BC]22042554 Details on http://radiosondy.info
W4DEX-14D220425542022-12-06 11:28:5836.1159-79.7704106936744Clb=3.1m/s Type=DFM17 ser=[BC]22042554 Details on http://radiosondy.info
W4KZK-14D220425542022-12-06 11:28:5336.1161-79.7717107896730Clb=4.8m/s t=-21.8C h=-1.0% p=-1.0hPa 403.400 MHz Type=DFM17 ser=22042554 Radiosonde
W4DEX-14D220425542022-12-06 11:28:3536.117-79.7744109946676Clb=5.5m/s Type=DFM17 ser=[BC]22042554 Details on http://radiosondy.info
W4DEX-14D220425542022-12-06 11:28:1036.1177-79.7787100986610Clb=3.7m/s Type=DFM17 ser=[BC]22042554 Details on http://radiosondy.info
W4KZK-14D220425542022-12-06 11:28:0236.1181-79.780896966585Clb=5.1m/s t=-21.2C h=-1.0% p=-1.0hPa 403.400 MHz Type=DFM17 ser=22042554 Radiosonde
W4DEX-14D220425542022-12-06 11:27:5236.1185-79.7832991006547Clb=4.6m/s Type=DFM17 ser=[BC]22042554 Details on http://radiosondy.info
W4DEX-14D220425542022-12-06 11:27:3736.1191-79.7878101966483Clb=3.3m/s Type=DFM17 ser=[BC]22042554 Details on http://radiosondy.info
W4KZK-14D220425542022-12-06 11:27:2936.1194-79.790795986445Clb=4.3m/s t=-20.0C h=-1.0% p=-1.0hPa 403.400 MHz Type=DFM17 ser=22042554 Radiosonde
W4DEX-14D220425542022-12-06 11:27:2336.1197-79.7922101966422Clb=3.9m/s Type=DFM17 ser=[BC]22042554 Details on http://radiosondy.info
W4DEX-14D220425542022-12-06 11:27:0736.1202-79.796696966352Clb=4.1m/s Type=DFM17 ser=[BC]22042554 Details on http://radiosondy.info
W4KZK-14D220425542022-12-06 11:26:5636.1206-79.800498966295Clb=4.3m/s t=-18.8C h=-1.0% p=-1.0hPa 403.400 MHz Type=DFM17 ser=22042554 Radiosonde
W4DEX-14D220425542022-12-06 11:26:5236.1207-79.801100936280Clb=3.8m/s Type=DFM17 ser=[BC]22042554 Details on http://radiosondy.info
W4DEX-14D220425542022-12-06 11:26:3736.1214-79.8052101896223Clb=3.0m/s Type=DFM17 ser=[BC]22042554 Details on http://radiosondy.info
W4KZK-14D220425542022-12-06 11:26:2236.1222-79.8101105986150Clb=4.7m/s t=-18.1C h=-1.0% p=-1.0hPa 403.400 MHz Type=DFM17 ser=22042554 Radiosonde
W4DEX-14D220425542022-12-06 11:26:1936.1229-79.813107806092Clb=5.5m/s Type=DFM17 ser=[BC]22042554 Details on http://radiosondy.info
W4DEX-14D220425542022-12-06 11:26:1836.1236-79.8166106806023Clb=4.3m/s Type=DFM17 ser=[BC]22042554 Details on http://radiosondy.info
W4DEX-14D220425542022-12-06 11:26:1736.1245-79.82100695952Clb=5.4m/s Type=DFM17 ser=[BC]22042554 Details on http://radiosondy.info
W4DEX-14D220425542022-12-06 11:26:0336.125-79.8231108695874Clb=3.1m/s Type=DFM17 ser=[BC]22042554 Details on http://radiosondy.info
W4DEX-14D220425542022-12-06 11:25:4136.1258-79.82698615809Clb=3.8m/s Type=DFM17 ser=[BC]22042554 Details on http://radiosondy.info
W4DEX-14D220425542022-12-06 11:25:1636.1264-79.8287115485725Clb=7.2m/s Type=DFM17 ser=[BC]22042554 Details on http://radiosondy.info
W4DEX-14D220425542022-12-06 11:24:5336.127-79.830891465653Clb=4.5m/s Type=DFM17 ser=[BC]22042554 Details on http://radiosondy.info
W4DEX-14D220425542022-12-06 11:24:3136.1275-79.8328122445582Clb=4.0m/s Type=DFM17 ser=[BC]22042554 Details on http://radiosondy.info
W4KZK-14D220425542022-12-06 11:24:1436.1279-79.8345112435537Clb=4.5m/s t=-14.4C h=-1.0% p=-1.0hPa 403.400 MHz Type=DFM17 ser=22042554 Radiosonde
W4DEX-14D220425542022-12-06 11:24:0936.128-79.8348102465520Clb=5.3m/s Type=DFM17 ser=[BC]22042554 Details on http://radiosondy.info
W4DEX-14D220425542022-12-06 11:23:5236.1283-79.8369100465458Clb=4.3m/s Type=DFM17 ser=[BC]22042554 Details on http://radiosondy.info
W4KZK-14D220425542022-12-06 11:23:3736.1289-79.8392104675385Clb=5.4m/s t=-13.1C h=-1.0% p=-1.0hPa 403.400 MHz Type=DFM17 ser=22042554 Radiosonde
W4DEX-14D220425542022-12-06 11:23:2236.1296-79.8414107615304Clb=2.6m/s Type=DFM17 ser=[BC]22042554 Details on http://radiosondy.info
W4DEX-14D220425542022-12-06 11:23:0736.1304-79.8441119635228Clb=5.2m/s Type=DFM17 ser=[BC]22042554 Details on http://radiosondy.info
W4KZK-14D220425542022-12-06 11:23:0436.1307-79.8449109575210Clb=4.7m/s t=-12.2C h=-1.0% p=-1.0hPa 403.400 MHz Type=DFM17 ser=22042554 Radiosonde
W4DEX-14D220425542022-12-06 11:22:5236.1312-79.8468122655162Clb=4.2m/s Type=DFM17 ser=[BC]22042554 Details on http://radiosondy.info
W4DEX-14D220425542022-12-06 11:22:3736.1322-79.8496126655087Clb=5.0m/s Type=DFM17 ser=[BC]22042554 Details on http://radiosondy.info
W4KZK-14D220425542022-12-06 11:22:3136.1326-79.850999675058Clb=4.2m/s t=-11.3C h=-1.0% p=-1.0hPa 403.400 MHz Type=DFM17 ser=22042554 Radiosonde
W4DEX-14D220425542022-12-06 11:22:2236.1331-79.852397575015Clb=5.6m/s Type=DFM17 ser=[BC]22042554 Details on http://radiosondy.info
W4DEX-14D220425542022-12-06 11:22:0936.1334-79.854987544932Clb=4.0m/s Type=DFM17 ser=[BC]22042554 Details on http://radiosondy.info
W4DEX-14D220425542022-12-06 11:21:5236.1338-79.8573111564856Clb=5.6m/s Type=DFM17 ser=[BC]22042554 Details on http://radiosondy.info
W4DEX-14D220425542022-12-06 11:21:5136.1341-79.859883504781Clb=3.5m/s Type=DFM17 ser=[BC]22042554 Details on http://radiosondy.info
W4DEX-14D220425542022-12-06 11:21:4636.134-79.8621102524714Clb=4.4m/s Type=DFM17 ser=[BC]22042554 Details on http://radiosondy.info
W4DEX-14D220425542022-12-06 11:21:2836.1341-79.8645100484649Clb=7.2m/s Type=DFM17 ser=[BC]22042554 Details on http://radiosondy.info
W4DEX-14D220425542022-12-06 11:21:0736.1342-79.866699444570Clb=5.6m/s Type=DFM17 ser=[BC]22042554 Details on http://radiosondy.info
W4DEX-14D220425542022-12-06 11:20:4836.1341-79.868674414502Clb=4.2m/s Type=DFM17 ser=[BC]22042554 Details on http://radiosondy.info
W4DEX-14D220425542022-12-06 11:20:2836.1339-79.870485334427Clb=6.0m/s Type=DFM17 ser=[BC]22042554 Details on http://radiosondy.info
W4DEX-14D220425542022-12-06 11:20:0836.1339-79.871998354349Clb=7.4m/s Type=DFM17 ser=[BC]22042554 Details on http://radiosondy.info
W4DEX-14D220425542022-12-06 11:19:5236.1337-79.873559334279Clb=4.8m/s Type=DFM17 ser=[BC]22042554 Details on http://radiosondy.info
W4DEX-14D220425542022-12-06 11:19:3736.1333-79.8748110314203Clb=5.7m/s Type=DFM17 ser=[BC]22042554 Details on http://radiosondy.info
W4DEX-14D220425542022-12-06 11:19:2236.133-79.876282314126Clb=2.5m/s Type=DFM17 ser=[BC]22042554 Details on http://radiosondy.info
W4DEX-14D220425542022-12-06 11:19:0736.1325-79.877444304054Clb=3.3m/s Type=DFM17 ser=[BC]22042554 Details on http://radiosondy.info
W4DEX-14D220425542022-12-06 11:18:5236.1321-79.878675283984Clb=4.5m/s Type=DFM17 ser=[BC]22042554 Details on http://radiosondy.info
W4DEX-14D220425542022-12-06 11:18:3736.1317-79.879638333910Clb=4.8m/s Type=DFM17 ser=[BC]22042554 Details on http://radiosondy.info
W4DEX-14D220425542022-12-06 11:18:2236.1312-79.88175263832Clb=6.2m/s Type=DFM17 ser=[BC]22042554 Details on http://radiosondy.info
W4DEX-14D220425542022-12-06 11:18:0736.1306-79.881961303751Clb=5.2m/s Type=DFM17 ser=[BC]22042554 Details on http://radiosondy.info
W4DEX-14D220425542022-12-06 11:17:5236.1301-79.88358313674Clb=6.9m/s Type=DFM17 ser=[BC]22042554 Details on http://radiosondy.info
W4DEX-14D220425542022-12-06 11:17:3736.1294-79.884251353574Clb=5.4m/s Type=DFM17 ser=[BC]22042554 Details on http://radiosondy.info
W4DEX-14D220425542022-12-06 11:17:3336.1289-79.885775283500Clb=4.6m/s Type=DFM17 ser=[BC]22042554 Details on http://radiosondy.info
W4DEX-14D220425542022-12-06 11:17:2536.1284-79.886883313435Clb=5.9m/s Type=DFM17 ser=[BC]22042554 Details on http://radiosondy.info
W4DEX-14D220425542022-12-06 11:17:0836.1279-79.888178313351Clb=7.5m/s Type=DFM17 ser=[BC]22042554 Details on http://radiosondy.info
W4DEX-14D220425542022-12-06 11:16:4736.1274-79.889399333280Clb=3.3m/s Type=DFM17 ser=[BC]22042554 Details on http://radiosondy.info
W4DEX-14D220425542022-12-06 11:16:2736.1271-79.890861373210Clb=4.6m/s Type=DFM17 ser=[BC]22042554 Details on http://radiosondy.info
W4DEX-14D220425542022-12-06 11:16:0736.1265-79.892389333143Clb=4.2m/s Type=DFM17 ser=[BC]22042554 Details on http://radiosondy.info
W4DEX-14D220425542022-12-06 11:15:5236.1263-79.893864413074Clb=5.0m/s Type=DFM17 ser=[BC]22042554 Details on http://radiosondy.info
W4DEX-14D220425542022-12-06 11:15:3736.126-79.895776412973Clb=7.0m/s Type=DFM17 ser=[BC]22042554 Details on http://radiosondy.info
W4DEX-14D220425542022-12-06 11:15:2236.1253-79.897448412902Clb=5.0m/s Type=DFM17 ser=[BC]22042554 Details on http://radiosondy.info
W4DEX-14D220425542022-12-06 11:15:0736.1249-79.899143412823Clb=4.6m/s Type=DFM17 ser=[BC]22042554 Details on http://radiosondy.info
W4DEX-14D220425542022-12-06 11:14:5236.1241-79.900771332748Clb=3.6m/s Type=DFM17 ser=[BC]22042554 Details on http://radiosondy.info
W4DEX-14D220425542022-12-06 11:14:3736.1236-79.902255312669Clb=6.3m/s Type=DFM17 ser=[BC]22042554 Details on http://radiosondy.info
W4DEX-14D220425542022-12-06 11:14:2236.1229-79.903332302589Clb=5.7m/s Type=DFM17 ser=[BC]22042554 Details on http://radiosondy.info
W4DEX-14D220425542022-12-06 11:14:0736.1224-79.904451332512Clb=5.5m/s Type=DFM17 ser=[BC]22042554 Details on http://radiosondy.info
W4DEX-14D220425542022-12-06 11:13:5236.1217-79.905679302432Clb=3.9m/s Type=DFM17 ser=[BC]22042554 Details on http://radiosondy.info
W4DEX-14D220425542022-12-06 11:13:3736.1212-79.906736332352Clb=5.5m/s Type=DFM17 ser=[BC]22042554 Details on http://radiosondy.info
W4DEX-14D220425542022-12-06 11:13:2236.1204-79.907930392272Clb=4.4m/s Type=DFM17 ser=[BC]22042554 Details on http://radiosondy.info
W4DEX-14D220425542022-12-06 11:13:0736.1194-79.909252412197Clb=3.9m/s Type=DFM17 ser=[BC]22042554 Details on http://radiosondy.info
W4DEX-14D220425542022-12-06 11:13:0036.1185-79.910676332115Clb=4.9m/s Type=DFM17 ser=[BC]22042554 Details on http://radiosondy.info
W4DEX-14D220425542022-12-06 11:12:4336.1178-79.911870392045Clb=4.3m/s Type=DFM17 ser=[BC]22042554 Details on http://radiosondy.info
W4DEX-14D220425542022-12-06 11:12:2336.1172-79.913551411971Clb=4.2m/s Type=DFM17 ser=[BC]22042554 Details on http://radiosondy.info
W4DEX-14D220425542022-12-06 11:12:0736.1163-79.91550501885Clb=4.9m/s Type=DFM17 ser=[BC]22042554 Details on http://radiosondy.info
W4DEX-14D220425542022-12-06 11:11:5236.1153-79.916963591810Clb=4.4m/s Type=DFM17 ser=[BC]22042554 Details on http://radiosondy.info
W4DEX-14D220425542022-12-06 11:11:3736.1146-79.919482501734Clb=3.7m/s Type=DFM17 ser=[BC]22042554 Details on http://radiosondy.info
W4DEX-14D220425542022-12-06 11:11:2236.1139-79.921669631655Clb=4.0m/s Type=DFM17 ser=[BC]22042554 Details on http://radiosondy.info
W4DEX-14D220425542022-12-06 11:11:0736.113-79.924376591577Clb=4.8m/s Type=DFM17 ser=[BC]22042554 Details on http://radiosondy.info
W4DEX-14D220425542022-12-06 11:10:5236.1121-79.926876651499Clb=6.9m/s Type=DFM17 ser=[BC]22042554 Details on http://radiosondy.info
W4DEX-14D220425542022-12-06 11:10:3736.1111-79.929656571416Clb=4.8m/s Type=DFM17 ser=[BC]22042554 Details on http://radiosondy.info
W4DEX-14D220425542022-12-06 11:10:2236.1101-79.931978521340Clb=4.5m/s Type=DFM17 ser=[BC]22042554 Details on http://radiosondy.info
W4DEX-14D220425542022-12-06 11:10:0736.1092-79.93471541269Clb=5.1m/s Type=DFM17 ser=[BC]22042554 Details on http://radiosondy.info
W4DEX-14D220425542022-12-06 11:09:5236.1082-79.936163591190Clb=5.3m/s Type=DFM17 ser=[BC]22042554 Details on http://radiosondy.info
W4DEX-14D220425542022-12-06 11:09:3736.1069-79.938348501113Clb=3.4m/s Type=DFM17 ser=[BC]22042554 Details on http://radiosondy.info
W4DEX-14D220425542022-12-06 11:09:2236.1056-79.9451501027Clb=6.5m/s Type=DFM17 ser=[BC]22042554 Details on http://radiosondy.info
W4DEX-14D220425542022-12-06 11:09:0736.1041-79.94144044946Clb=4.2m/s Type=DFM17 ser=[BC]22042554 Details on http://radiosondy.info
W4DEX-14D220425542022-12-06 11:08:5236.1027-79.94231741873Clb=3.8m/s Type=DFM17 ser=[BC]22042554 Details on http://radiosondy.info
W4DEX-14D220425542022-12-06 11:08:3736.1013-79.942835435796Clb=5.2m/s Type=DFM Details on http://radiosondy.info
W4DEX-14D220425542022-12-06 11:08:2236.1-79.94336031714Clb=6.6m/s Type=DFM Details on http://radiosondy.info